<?xml version="1.0" encoding="UTF-8" standalone="no" ?>
<gpx xmlns="http://www.topografix.com/GPX/1/1" xmlns:xsi="http://www.w3.org/2001/XMLSchema-instance" xsi:schemaLocation="http://www.topografix.com/GPX/1/1 http://www.topografix.com/GPX/1/1/gpx.xsd" version="1.1" creator="VisuGPX - https://www.visugpx.com">
  <metadata>
    <name>Tour du Torragion Etape 2 - Olivetta - Breil</name>
    <desc><![CDATA[Belle étape un peu longue (trés longue) toujours les mêmes.
Les filles se sont baignées dans la ROYA.]]></desc>
  </metadata>
  <trk>
    <name><![CDATA[Menton San Remo Etape 2 : Olivetta - Breil]]></name>
    <trkseg>
      <trkpt lat="43.8796" lon="7.51682">
        <ele>298</ele>
        <time>2016-05-22T07:27:11Z</time>
      </trkpt>
      <trkpt lat="43.87953" lon="7.51704">
        <ele>313</ele>
        <time>2016-05-22T07:30:15Z</time>
      </trkpt>
      <trkpt lat="43.87947" lon="7.51727">
        <ele>307</ele>
        <time>2016-05-22T07:31:18Z</time>
      </trkpt>
      <trkpt lat="43.87942" lon="7.51751">
        <ele>309</ele>
        <time>2016-05-22T07:31:38Z</time>
      </trkpt>
      <trkpt lat="43.87934" lon="7.5177">
        <ele>309</ele>
        <time>2016-05-22T07:32:01Z</time>
      </trkpt>
      <trkpt lat="43.87921" lon="7.51785">
        <ele>311</ele>
        <time>2016-05-22T07:32:23Z</time>
      </trkpt>
      <trkpt lat="43.87906" lon="7.51807">
        <ele>310</ele>
        <time>2016-05-22T07:32:42Z</time>
      </trkpt>
      <trkpt lat="43.87897" lon="7.51829">
        <ele>313</ele>
        <time>2016-05-22T07:33:01Z</time>
      </trkpt>
      <trkpt lat="43.87883" lon="7.51851">
        <ele>312</ele>
        <time>2016-05-22T07:33:20Z</time>
      </trkpt>
      <trkpt lat="43.87868" lon="7.51876">
        <ele>308</ele>
        <time>2016-05-22T07:33:39Z</time>
      </trkpt>
      <trkpt lat="43.87853" lon="7.51904">
        <ele>306</ele>
        <time>2016-05-22T07:33:59Z</time>
      </trkpt>
      <trkpt lat="43.87841" lon="7.51922">
        <ele>306</ele>
        <time>2016-05-22T07:34:21Z</time>
      </trkpt>
      <trkpt lat="43.8782" lon="7.51936">
        <ele>310</ele>
        <time>2016-05-22T07:34:41Z</time>
      </trkpt>
      <trkpt lat="43.87805" lon="7.51949">
        <ele>316</ele>
        <time>2016-05-22T07:35:08Z</time>
      </trkpt>
      <trkpt lat="43.87804" lon="7.51973">
        <ele>316</ele>
        <time>2016-05-22T07:35:39Z</time>
      </trkpt>
      <trkpt lat="43.87803" lon="7.51997">
        <ele>320</ele>
        <time>2016-05-22T07:36:02Z</time>
      </trkpt>
      <trkpt lat="43.87788" lon="7.52022">
        <ele>324</ele>
        <time>2016-05-22T07:36:21Z</time>
      </trkpt>
      <trkpt lat="43.87779" lon="7.52047">
        <ele>324</ele>
        <time>2016-05-22T07:36:40Z</time>
      </trkpt>
      <trkpt lat="43.87766" lon="7.52071">
        <ele>323</ele>
        <time>2016-05-22T07:37:00Z</time>
      </trkpt>
      <trkpt lat="43.8775" lon="7.52081">
        <ele>325</ele>
        <time>2016-05-22T07:37:22Z</time>
      </trkpt>
      <trkpt lat="43.87745" lon="7.52103">
        <ele>328</ele>
        <time>2016-05-22T07:37:46Z</time>
      </trkpt>
      <trkpt lat="43.87744" lon="7.52128">
        <ele>332</ele>
        <time>2016-05-22T07:38:23Z</time>
      </trkpt>
      <trkpt lat="43.87743" lon="7.52159">
        <ele>331</ele>
        <time>2016-05-22T07:38:43Z</time>
      </trkpt>
      <trkpt lat="43.87746" lon="7.52188">
        <ele>332</ele>
        <time>2016-05-22T07:39:02Z</time>
      </trkpt>
      <trkpt lat="43.87743" lon="7.52227">
        <ele>332</ele>
        <time>2016-05-22T07:39:22Z</time>
      </trkpt>
      <trkpt lat="43.87739" lon="7.52257">
        <ele>338</ele>
        <time>2016-05-22T07:39:42Z</time>
      </trkpt>
      <trkpt lat="43.87729" lon="7.5228">
        <ele>338</ele>
        <time>2016-05-22T07:40:02Z</time>
      </trkpt>
      <trkpt lat="43.87715" lon="7.52299">
        <ele>340</ele>
        <time>2016-05-22T07:40:22Z</time>
      </trkpt>
      <trkpt lat="43.87705" lon="7.52319">
        <ele>336</ele>
        <time>2016-05-22T07:42:13Z</time>
      </trkpt>
      <trkpt lat="43.87704" lon="7.52344">
        <ele>341</ele>
        <time>2016-05-22T07:42:32Z</time>
      </trkpt>
      <trkpt lat="43.87702" lon="7.52369">
        <ele>346</ele>
        <time>2016-05-22T07:42:57Z</time>
      </trkpt>
      <trkpt lat="43.877" lon="7.524">
        <ele>349</ele>
        <time>2016-05-22T07:43:16Z</time>
      </trkpt>
      <trkpt lat="43.87693" lon="7.52423">
        <ele>352</ele>
        <time>2016-05-22T07:43:38Z</time>
      </trkpt>
      <trkpt lat="43.87681" lon="7.52445">
        <ele>351</ele>
        <time>2016-05-22T07:43:57Z</time>
      </trkpt>
      <trkpt lat="43.87673" lon="7.52474">
        <ele>347</ele>
        <time>2016-05-22T07:44:17Z</time>
      </trkpt>
      <trkpt lat="43.87671" lon="7.52514">
        <ele>348</ele>
        <time>2016-05-22T07:44:37Z</time>
      </trkpt>
      <trkpt lat="43.87671" lon="7.52538">
        <ele>345</ele>
        <time>2016-05-22T07:44:58Z</time>
      </trkpt>
      <trkpt lat="43.87668" lon="7.52566">
        <ele>342</ele>
        <time>2016-05-22T07:45:18Z</time>
      </trkpt>
      <trkpt lat="43.87662" lon="7.52597">
        <ele>343</ele>
        <time>2016-05-22T07:45:37Z</time>
      </trkpt>
      <trkpt lat="43.8766" lon="7.52627">
        <ele>343</ele>
        <time>2016-05-22T07:45:57Z</time>
      </trkpt>
      <trkpt lat="43.87661" lon="7.52655">
        <ele>344</ele>
        <time>2016-05-22T07:46:16Z</time>
      </trkpt>
      <trkpt lat="43.87661" lon="7.52686">
        <ele>347</ele>
        <time>2016-05-22T07:46:36Z</time>
      </trkpt>
      <trkpt lat="43.87661" lon="7.52713">
        <ele>347</ele>
        <time>2016-05-22T07:46:55Z</time>
      </trkpt>
      <trkpt lat="43.87671" lon="7.52732">
        <ele>352</ele>
        <time>2016-05-22T07:47:17Z</time>
      </trkpt>
      <trkpt lat="43.87682" lon="7.52752">
        <ele>353</ele>
        <time>2016-05-22T07:47:43Z</time>
      </trkpt>
      <trkpt lat="43.87685" lon="7.52776">
        <ele>357</ele>
        <time>2016-05-22T07:48:02Z</time>
      </trkpt>
      <trkpt lat="43.87686" lon="7.528">
        <ele>363</ele>
        <time>2016-05-22T07:48:23Z</time>
      </trkpt>
      <trkpt lat="43.8768" lon="7.52824">
        <ele>362</ele>
        <time>2016-05-22T07:48:44Z</time>
      </trkpt>
      <trkpt lat="43.87679" lon="7.52856">
        <ele>359</ele>
        <time>2016-05-22T07:49:04Z</time>
      </trkpt>
      <trkpt lat="43.87672" lon="7.52885">
        <ele>364</ele>
        <time>2016-05-22T07:49:23Z</time>
      </trkpt>
      <trkpt lat="43.87668" lon="7.52908">
        <ele>357</ele>
        <time>2016-05-22T07:49:52Z</time>
      </trkpt>
      <trkpt lat="43.87659" lon="7.52941">
        <ele>357</ele>
        <time>2016-05-22T07:50:11Z</time>
      </trkpt>
      <trkpt lat="43.87652" lon="7.52964">
        <ele>353</ele>
        <time>2016-05-22T07:50:31Z</time>
      </trkpt>
      <trkpt lat="43.87641" lon="7.52986">
        <ele>352</ele>
        <time>2016-05-22T07:50:50Z</time>
      </trkpt>
      <trkpt lat="43.87637" lon="7.5301">
        <ele>357</ele>
        <time>2016-05-22T07:51:09Z</time>
      </trkpt>
      <trkpt lat="43.87632" lon="7.53032">
        <ele>361</ele>
        <time>2016-05-22T07:52:05Z</time>
      </trkpt>
      <trkpt lat="43.87624" lon="7.53053">
        <ele>360</ele>
        <time>2016-05-22T07:52:28Z</time>
      </trkpt>
      <trkpt lat="43.8762" lon="7.53075">
        <ele>357</ele>
        <time>2016-05-22T07:52:48Z</time>
      </trkpt>
      <trkpt lat="43.87608" lon="7.53093">
        <ele>363</ele>
        <time>2016-05-22T07:53:13Z</time>
      </trkpt>
      <trkpt lat="43.87593" lon="7.5312">
        <ele>369</ele>
        <time>2016-05-22T07:53:33Z</time>
      </trkpt>
      <trkpt lat="43.87578" lon="7.53131">
        <ele>372</ele>
        <time>2016-05-22T07:54:07Z</time>
      </trkpt>
      <trkpt lat="43.87592" lon="7.53146">
        <ele>383</ele>
        <time>2016-05-22T07:54:57Z</time>
      </trkpt>
      <trkpt lat="43.87582" lon="7.53166">
        <ele>382</ele>
        <time>2016-05-22T07:56:02Z</time>
      </trkpt>
      <trkpt lat="43.87582" lon="7.5319">
        <ele>384</ele>
        <time>2016-05-22T07:57:13Z</time>
      </trkpt>
      <trkpt lat="43.87574" lon="7.53211">
        <ele>388</ele>
        <time>2016-05-22T08:00:38Z</time>
      </trkpt>
      <trkpt lat="43.87561" lon="7.53227">
        <ele>388</ele>
        <time>2016-05-22T08:01:25Z</time>
      </trkpt>
      <trkpt lat="43.87553" lon="7.53248">
        <ele>384</ele>
        <time>2016-05-22T08:01:46Z</time>
      </trkpt>
      <trkpt lat="43.87547" lon="7.53271">
        <ele>388</ele>
        <time>2016-05-22T08:02:21Z</time>
      </trkpt>
      <trkpt lat="43.87537" lon="7.53289">
        <ele>383</ele>
        <time>2016-05-22T08:03:01Z</time>
      </trkpt>
      <trkpt lat="43.87529" lon="7.53309">
        <ele>378</ele>
        <time>2016-05-22T08:03:57Z</time>
      </trkpt>
      <trkpt lat="43.87529" lon="7.53335">
        <ele>373</ele>
        <time>2016-05-22T08:04:17Z</time>
      </trkpt>
      <trkpt lat="43.87532" lon="7.53363">
        <ele>369</ele>
        <time>2016-05-22T08:04:37Z</time>
      </trkpt>
      <trkpt lat="43.87523" lon="7.53383">
        <ele>368</ele>
        <time>2016-05-22T08:05:35Z</time>
      </trkpt>
      <trkpt lat="43.87504" lon="7.53388">
        <ele>357</ele>
        <time>2016-05-22T08:05:55Z</time>
      </trkpt>
      <trkpt lat="43.8748" lon="7.53397">
        <ele>357</ele>
        <time>2016-05-22T08:06:14Z</time>
      </trkpt>
      <trkpt lat="43.87464" lon="7.53406">
        <ele>355</ele>
        <time>2016-05-22T08:06:39Z</time>
      </trkpt>
      <trkpt lat="43.87438" lon="7.53398">
        <ele>355</ele>
        <time>2016-05-22T08:06:59Z</time>
      </trkpt>
      <trkpt lat="43.87419" lon="7.53407">
        <ele>352</ele>
        <time>2016-05-22T08:07:18Z</time>
      </trkpt>
      <trkpt lat="43.87396" lon="7.53425">
        <ele>352</ele>
        <time>2016-05-22T08:07:38Z</time>
      </trkpt>
      <trkpt lat="43.87377" lon="7.53441">
        <ele>353</ele>
        <time>2016-05-22T08:07:58Z</time>
      </trkpt>
      <trkpt lat="43.87353" lon="7.53453">
        <ele>351</ele>
        <time>2016-05-22T08:08:17Z</time>
      </trkpt>
      <trkpt lat="43.87331" lon="7.53446">
        <ele>342</ele>
        <time>2016-05-22T08:08:37Z</time>
      </trkpt>
      <trkpt lat="43.87311" lon="7.53446">
        <ele>342</ele>
        <time>2016-05-22T08:08:56Z</time>
      </trkpt>
      <trkpt lat="43.87291" lon="7.53466">
        <ele>343</ele>
        <time>2016-05-22T08:09:15Z</time>
      </trkpt>
      <trkpt lat="43.87274" lon="7.53485">
        <ele>342</ele>
        <time>2016-05-22T08:09:35Z</time>
      </trkpt>
      <trkpt lat="43.87258" lon="7.53501">
        <ele>346</ele>
        <time>2016-05-22T08:09:55Z</time>
      </trkpt>
      <trkpt lat="43.87235" lon="7.53509">
        <ele>346</ele>
        <time>2016-05-22T08:10:14Z</time>
      </trkpt>
      <trkpt lat="43.87216" lon="7.53495">
        <ele>346</ele>
        <time>2016-05-22T08:10:33Z</time>
      </trkpt>
      <trkpt lat="43.87193" lon="7.53479">
        <ele>345</ele>
        <time>2016-05-22T08:10:53Z</time>
      </trkpt>
      <trkpt lat="43.87172" lon="7.53481">
        <ele>344</ele>
        <time>2016-05-22T08:11:13Z</time>
      </trkpt>
      <trkpt lat="43.87151" lon="7.53483">
        <ele>343</ele>
        <time>2016-05-22T08:11:33Z</time>
      </trkpt>
      <trkpt lat="43.87142" lon="7.53503">
        <ele>345</ele>
        <time>2016-05-22T08:11:56Z</time>
      </trkpt>
      <trkpt lat="43.87132" lon="7.53524">
        <ele>348</ele>
        <time>2016-05-22T08:12:15Z</time>
      </trkpt>
      <trkpt lat="43.87122" lon="7.53542">
        <ele>349</ele>
        <time>2016-05-22T08:12:36Z</time>
      </trkpt>
      <trkpt lat="43.87115" lon="7.53564">
        <ele>347</ele>
        <time>2016-05-22T08:12:58Z</time>
      </trkpt>
      <trkpt lat="43.87108" lon="7.53588">
        <ele>346</ele>
        <time>2016-05-22T08:13:18Z</time>
      </trkpt>
      <trkpt lat="43.87101" lon="7.53611">
        <ele>351</ele>
        <time>2016-05-22T08:13:37Z</time>
      </trkpt>
      <trkpt lat="43.87086" lon="7.53623">
        <ele>349</ele>
        <time>2016-05-22T08:14:00Z</time>
      </trkpt>
      <trkpt lat="43.87065" lon="7.53628">
        <ele>355</ele>
        <time>2016-05-22T08:14:19Z</time>
      </trkpt>
      <trkpt lat="43.87048" lon="7.53621">
        <ele>358</ele>
        <time>2016-05-22T08:14:39Z</time>
      </trkpt>
      <trkpt lat="43.87031" lon="7.53624">
        <ele>355</ele>
        <time>2016-05-22T08:15:00Z</time>
      </trkpt>
      <trkpt lat="43.87024" lon="7.53646">
        <ele>353</ele>
        <time>2016-05-22T08:15:22Z</time>
      </trkpt>
      <trkpt lat="43.87014" lon="7.53673">
        <ele>350</ele>
        <time>2016-05-22T08:15:42Z</time>
      </trkpt>
      <trkpt lat="43.87005" lon="7.53695">
        <ele>346</ele>
        <time>2016-05-22T08:16:02Z</time>
      </trkpt>
      <trkpt lat="43.86995" lon="7.53716">
        <ele>349</ele>
        <time>2016-05-22T08:16:27Z</time>
      </trkpt>
      <trkpt lat="43.86979" lon="7.53726">
        <ele>350</ele>
        <time>2016-05-22T08:16:51Z</time>
      </trkpt>
      <trkpt lat="43.86973" lon="7.53748">
        <ele>348</ele>
        <time>2016-05-22T08:17:11Z</time>
      </trkpt>
      <trkpt lat="43.86962" lon="7.53766">
        <ele>349</ele>
        <time>2016-05-22T08:17:31Z</time>
      </trkpt>
      <trkpt lat="43.8694" lon="7.53761">
        <ele>345</ele>
        <time>2016-05-22T08:17:51Z</time>
      </trkpt>
      <trkpt lat="43.86923" lon="7.53754">
        <ele>339</ele>
        <time>2016-05-22T08:18:16Z</time>
      </trkpt>
      <trkpt lat="43.8691" lon="7.5377">
        <ele>349</ele>
        <time>2016-05-22T08:18:37Z</time>
      </trkpt>
      <trkpt lat="43.86904" lon="7.53795">
        <ele>355</ele>
        <time>2016-05-22T08:18:57Z</time>
      </trkpt>
      <trkpt lat="43.86895" lon="7.53813">
        <ele>356</ele>
        <time>2016-05-22T08:19:19Z</time>
      </trkpt>
      <trkpt lat="43.86881" lon="7.53828">
        <ele>357</ele>
        <time>2016-05-22T08:19:45Z</time>
      </trkpt>
      <trkpt lat="43.86863" lon="7.53828">
        <ele>361</ele>
        <time>2016-05-22T08:20:12Z</time>
      </trkpt>
      <trkpt lat="43.86851" lon="7.53847">
        <ele>361</ele>
        <time>2016-05-22T08:20:37Z</time>
      </trkpt>
      <trkpt lat="43.86847" lon="7.5387">
        <ele>355</ele>
        <time>2016-05-22T08:20:58Z</time>
      </trkpt>
      <trkpt lat="43.86843" lon="7.53899">
        <ele>358</ele>
        <time>2016-05-22T08:21:17Z</time>
      </trkpt>
      <trkpt lat="43.8684" lon="7.53923">
        <ele>361</ele>
        <time>2016-05-22T08:21:38Z</time>
      </trkpt>
      <trkpt lat="43.86828" lon="7.5394">
        <ele>360</ele>
        <time>2016-05-22T08:21:59Z</time>
      </trkpt>
      <trkpt lat="43.86829" lon="7.53964">
        <ele>371</ele>
        <time>2016-05-22T08:22:29Z</time>
      </trkpt>
      <trkpt lat="43.86823" lon="7.53986">
        <ele>373</ele>
        <time>2016-05-22T08:22:50Z</time>
      </trkpt>
      <trkpt lat="43.8682" lon="7.5401">
        <ele>375</ele>
        <time>2016-05-22T08:23:15Z</time>
      </trkpt>
      <trkpt lat="43.86816" lon="7.54034">
        <ele>373</ele>
        <time>2016-05-22T08:23:42Z</time>
      </trkpt>
      <trkpt lat="43.86808" lon="7.54053">
        <ele>378</ele>
        <time>2016-05-22T08:24:08Z</time>
      </trkpt>
      <trkpt lat="43.86797" lon="7.54073">
        <ele>380</ele>
        <time>2016-05-22T08:24:50Z</time>
      </trkpt>
      <trkpt lat="43.86789" lon="7.54093">
        <ele>388</ele>
        <time>2016-05-22T08:25:12Z</time>
      </trkpt>
      <trkpt lat="43.86782" lon="7.54116">
        <ele>384</ele>
        <time>2016-05-22T08:25:48Z</time>
      </trkpt>
      <trkpt lat="43.86785" lon="7.5414">
        <ele>393</ele>
        <time>2016-05-22T08:26:21Z</time>
      </trkpt>
      <trkpt lat="43.86772" lon="7.54162">
        <ele>399</ele>
        <time>2016-05-22T08:26:40Z</time>
      </trkpt>
      <trkpt lat="43.86772" lon="7.54186">
        <ele>403</ele>
        <time>2016-05-22T08:27:07Z</time>
      </trkpt>
      <trkpt lat="43.86775" lon="7.5421">
        <ele>400</ele>
        <time>2016-05-22T08:27:36Z</time>
      </trkpt>
      <trkpt lat="43.86788" lon="7.54227">
        <ele>414</ele>
        <time>2016-05-22T08:29:02Z</time>
      </trkpt>
      <trkpt lat="43.8679" lon="7.54252">
        <ele>415</ele>
        <time>2016-05-22T08:30:17Z</time>
      </trkpt>
      <trkpt lat="43.86776" lon="7.54268">
        <ele>417</ele>
        <time>2016-05-22T08:33:20Z</time>
      </trkpt>
      <trkpt lat="43.86771" lon="7.54291">
        <ele>413</ele>
        <time>2016-05-22T08:41:05Z</time>
      </trkpt>
      <trkpt lat="43.86763" lon="7.54313">
        <ele>411</ele>
        <time>2016-05-22T08:41:26Z</time>
      </trkpt>
      <trkpt lat="43.86752" lon="7.5434">
        <ele>411</ele>
        <time>2016-05-22T08:41:45Z</time>
      </trkpt>
      <trkpt lat="43.86743" lon="7.54358">
        <ele>398</ele>
        <time>2016-05-22T08:43:01Z</time>
      </trkpt>
      <trkpt lat="43.86742" lon="7.54382">
        <ele>396</ele>
        <time>2016-05-22T08:43:24Z</time>
      </trkpt>
      <trkpt lat="43.86741" lon="7.54406">
        <ele>389</ele>
        <time>2016-05-22T08:44:06Z</time>
      </trkpt>
      <trkpt lat="43.86741" lon="7.54428">
        <ele>387</ele>
        <time>2016-05-22T08:44:58Z</time>
      </trkpt>
      <trkpt lat="43.86733" lon="7.5445">
        <ele>387</ele>
        <time>2016-05-22T08:45:18Z</time>
      </trkpt>
      <trkpt lat="43.86732" lon="7.54474">
        <ele>379</ele>
        <time>2016-05-22T08:45:48Z</time>
      </trkpt>
      <trkpt lat="43.86724" lon="7.54497">
        <ele>377</ele>
        <time>2016-05-22T08:46:07Z</time>
      </trkpt>
      <trkpt lat="43.86718" lon="7.54519">
        <ele>372</ele>
        <time>2016-05-22T08:46:34Z</time>
      </trkpt>
      <trkpt lat="43.86715" lon="7.5455">
        <ele>376</ele>
        <time>2016-05-22T08:46:54Z</time>
      </trkpt>
      <trkpt lat="43.86712" lon="7.54576">
        <ele>374</ele>
        <time>2016-05-22T08:47:13Z</time>
      </trkpt>
      <trkpt lat="43.86708" lon="7.54608">
        <ele>372</ele>
        <time>2016-05-22T08:47:33Z</time>
      </trkpt>
      <trkpt lat="43.867" lon="7.54631">
        <ele>368</ele>
        <time>2016-05-22T08:47:52Z</time>
      </trkpt>
      <trkpt lat="43.86688" lon="7.54648">
        <ele>369</ele>
        <time>2016-05-22T08:48:13Z</time>
      </trkpt>
      <trkpt lat="43.86679" lon="7.54668">
        <ele>358</ele>
        <time>2016-05-22T08:48:45Z</time>
      </trkpt>
      <trkpt lat="43.86671" lon="7.54687">
        <ele>356</ele>
        <time>2016-05-22T08:49:19Z</time>
      </trkpt>
      <trkpt lat="43.86656" lon="7.547">
        <ele>353</ele>
        <time>2016-05-22T08:50:23Z</time>
      </trkpt>
      <trkpt lat="43.86669" lon="7.54717">
        <ele>341</ele>
        <time>2016-05-22T08:50:56Z</time>
      </trkpt>
      <trkpt lat="43.86677" lon="7.54739">
        <ele>335</ele>
        <time>2016-05-22T08:51:15Z</time>
      </trkpt>
      <trkpt lat="43.86686" lon="7.54759">
        <ele>332</ele>
        <time>2016-05-22T08:51:39Z</time>
      </trkpt>
      <trkpt lat="43.86687" lon="7.54787">
        <ele>342</ele>
        <time>2016-05-22T08:51:58Z</time>
      </trkpt>
      <trkpt lat="43.86695" lon="7.54808">
        <ele>332</ele>
        <time>2016-05-22T08:57:35Z</time>
      </trkpt>
      <trkpt lat="43.86685" lon="7.54831">
        <ele>331</ele>
        <time>2016-05-22T08:57:55Z</time>
      </trkpt>
      <trkpt lat="43.86676" lon="7.54851">
        <ele>324</ele>
        <time>2016-05-22T08:58:19Z</time>
      </trkpt>
      <trkpt lat="43.86694" lon="7.54847">
        <ele>320</ele>
        <time>2016-05-22T08:59:10Z</time>
      </trkpt>
      <trkpt lat="43.86697" lon="7.54871">
        <ele>303</ele>
        <time>2016-05-22T09:00:01Z</time>
      </trkpt>
      <trkpt lat="43.86687" lon="7.54893">
        <ele>303</ele>
        <time>2016-05-22T09:00:20Z</time>
      </trkpt>
      <trkpt lat="43.8668" lon="7.54916">
        <ele>302</ele>
        <time>2016-05-22T09:00:46Z</time>
      </trkpt>
      <trkpt lat="43.86677" lon="7.54939">
        <ele>304</ele>
        <time>2016-05-22T09:01:16Z</time>
      </trkpt>
      <trkpt lat="43.8667" lon="7.5496">
        <ele>297</ele>
        <time>2016-05-22T09:03:56Z</time>
      </trkpt>
      <trkpt lat="43.86664" lon="7.54983">
        <ele>291</ele>
        <time>2016-05-22T09:04:18Z</time>
      </trkpt>
      <trkpt lat="43.86657" lon="7.55004">
        <ele>295</ele>
        <time>2016-05-22T09:04:43Z</time>
      </trkpt>
      <trkpt lat="43.86651" lon="7.55026">
        <ele>299</ele>
        <time>2016-05-22T09:05:02Z</time>
      </trkpt>
      <trkpt lat="43.86645" lon="7.55049">
        <ele>298</ele>
        <time>2016-05-22T09:05:27Z</time>
      </trkpt>
      <trkpt lat="43.86641" lon="7.55073">
        <ele>296</ele>
        <time>2016-05-22T09:05:55Z</time>
      </trkpt>
      <trkpt lat="43.86637" lon="7.55097">
        <ele>295</ele>
        <time>2016-05-22T09:06:22Z</time>
      </trkpt>
      <trkpt lat="43.86631" lon="7.55119">
        <ele>297</ele>
        <time>2016-05-22T09:06:52Z</time>
      </trkpt>
      <trkpt lat="43.86622" lon="7.5514">
        <ele>290</ele>
        <time>2016-05-22T09:07:20Z</time>
      </trkpt>
      <trkpt lat="43.86618" lon="7.55163">
        <ele>287</ele>
        <time>2016-05-22T09:07:41Z</time>
      </trkpt>
      <trkpt lat="43.86602" lon="7.55179">
        <ele>286</ele>
        <time>2016-05-22T09:08:00Z</time>
      </trkpt>
      <trkpt lat="43.8658" lon="7.55189">
        <ele>283</ele>
        <time>2016-05-22T09:08:20Z</time>
      </trkpt>
      <trkpt lat="43.86562" lon="7.55206">
        <ele>288</ele>
        <time>2016-05-22T09:08:40Z</time>
      </trkpt>
      <trkpt lat="43.86545" lon="7.55215">
        <ele>290</ele>
        <time>2016-05-22T09:09:00Z</time>
      </trkpt>
      <trkpt lat="43.86538" lon="7.55237">
        <ele>278</ele>
        <time>2016-05-22T09:11:02Z</time>
      </trkpt>
      <trkpt lat="43.86548" lon="7.55257">
        <ele>265</ele>
        <time>2016-05-22T09:12:15Z</time>
      </trkpt>
      <trkpt lat="43.86553" lon="7.5528">
        <ele>263</ele>
        <time>2016-05-22T09:12:38Z</time>
      </trkpt>
      <trkpt lat="43.86554" lon="7.55304">
        <ele>269</ele>
        <time>2016-05-22T09:12:58Z</time>
      </trkpt>
      <trkpt lat="43.86561" lon="7.55327">
        <ele>268</ele>
        <time>2016-05-22T09:13:22Z</time>
      </trkpt>
      <trkpt lat="43.86574" lon="7.55343">
        <ele>263</ele>
        <time>2016-05-22T09:13:45Z</time>
      </trkpt>
      <trkpt lat="43.86588" lon="7.55357">
        <ele>256</ele>
        <time>2016-05-22T09:14:11Z</time>
      </trkpt>
      <trkpt lat="43.86601" lon="7.55373">
        <ele>260</ele>
        <time>2016-05-22T09:14:36Z</time>
      </trkpt>
      <trkpt lat="43.86609" lon="7.55395">
        <ele>259</ele>
        <time>2016-05-22T09:15:04Z</time>
      </trkpt>
      <trkpt lat="43.86603" lon="7.55419">
        <ele>262</ele>
        <time>2016-05-22T09:15:50Z</time>
      </trkpt>
      <trkpt lat="43.8659" lon="7.55434">
        <ele>264</ele>
        <time>2016-05-22T09:16:13Z</time>
      </trkpt>
      <trkpt lat="43.86586" lon="7.55455">
        <ele>274</ele>
        <time>2016-05-22T09:16:43Z</time>
      </trkpt>
      <trkpt lat="43.86589" lon="7.55479">
        <ele>273</ele>
        <time>2016-05-22T09:17:11Z</time>
      </trkpt>
      <trkpt lat="43.86603" lon="7.55492">
        <ele>266</ele>
        <time>2016-05-22T09:17:43Z</time>
      </trkpt>
      <trkpt lat="43.86616" lon="7.55509">
        <ele>255</ele>
        <time>2016-05-22T09:18:26Z</time>
      </trkpt>
      <trkpt lat="43.86623" lon="7.55531">
        <ele>251</ele>
        <time>2016-05-22T09:18:57Z</time>
      </trkpt>
      <trkpt lat="43.86625" lon="7.55555">
        <ele>244</ele>
        <time>2016-05-22T09:19:28Z</time>
      </trkpt>
      <trkpt lat="43.86635" lon="7.55574">
        <ele>240</ele>
        <time>2016-05-22T09:19:53Z</time>
      </trkpt>
      <trkpt lat="43.86651" lon="7.55584">
        <ele>238</ele>
        <time>2016-05-22T09:20:20Z</time>
      </trkpt>
      <trkpt lat="43.86669" lon="7.55583">
        <ele>229</ele>
        <time>2016-05-22T09:20:52Z</time>
      </trkpt>
      <trkpt lat="43.86687" lon="7.5558">
        <ele>226</ele>
        <time>2016-05-22T09:21:21Z</time>
      </trkpt>
      <trkpt lat="43.86703" lon="7.55572">
        <ele>228</ele>
        <time>2016-05-22T09:21:41Z</time>
      </trkpt>
      <trkpt lat="43.86721" lon="7.55574">
        <ele>226</ele>
        <time>2016-05-22T09:22:05Z</time>
      </trkpt>
      <trkpt lat="43.86738" lon="7.55566">
        <ele>226</ele>
        <time>2016-05-22T09:22:26Z</time>
      </trkpt>
      <trkpt lat="43.86755" lon="7.5557">
        <ele>219</ele>
        <time>2016-05-22T09:23:04Z</time>
      </trkpt>
      <trkpt lat="43.86767" lon="7.55587">
        <ele>218</ele>
        <time>2016-05-22T09:24:14Z</time>
      </trkpt>
      <trkpt lat="43.86779" lon="7.55605">
        <ele>211</ele>
        <time>2016-05-22T09:24:44Z</time>
      </trkpt>
      <trkpt lat="43.86797" lon="7.55611">
        <ele>203</ele>
        <time>2016-05-22T09:25:21Z</time>
      </trkpt>
      <trkpt lat="43.86815" lon="7.55609">
        <ele>201</ele>
        <time>2016-05-22T09:25:49Z</time>
      </trkpt>
      <trkpt lat="43.86832" lon="7.55604">
        <ele>200</ele>
        <time>2016-05-22T09:26:17Z</time>
      </trkpt>
      <trkpt lat="43.86847" lon="7.55617">
        <ele>194</ele>
        <time>2016-05-22T09:26:52Z</time>
      </trkpt>
      <trkpt lat="43.86862" lon="7.55629">
        <ele>192</ele>
        <time>2016-05-22T09:27:16Z</time>
      </trkpt>
      <trkpt lat="43.86878" lon="7.5564">
        <ele>186</ele>
        <time>2016-05-22T09:27:46Z</time>
      </trkpt>
      <trkpt lat="43.86894" lon="7.55649">
        <ele>183</ele>
        <time>2016-05-22T09:28:37Z</time>
      </trkpt>
      <trkpt lat="43.86911" lon="7.55656">
        <ele>169</ele>
        <time>2016-05-22T09:29:41Z</time>
      </trkpt>
      <trkpt lat="43.86924" lon="7.55639">
        <ele>161</ele>
        <time>2016-05-22T09:30:43Z</time>
      </trkpt>
      <trkpt lat="43.86938" lon="7.55625">
        <ele>149</ele>
        <time>2016-05-22T09:31:45Z</time>
      </trkpt>
      <trkpt lat="43.86956" lon="7.5563">
        <ele>132</ele>
        <time>2016-05-22T09:32:53Z</time>
      </trkpt>
      <trkpt lat="43.86973" lon="7.55635">
        <ele>122</ele>
        <time>2016-05-22T09:34:05Z</time>
      </trkpt>
      <trkpt lat="43.86978" lon="7.55658">
        <ele>93</ele>
        <time>2016-05-22T09:35:38Z</time>
      </trkpt>
      <trkpt lat="43.86994" lon="7.55647">
        <ele>98</ele>
        <time>2016-05-22T09:36:27Z</time>
      </trkpt>
      <trkpt lat="43.87003" lon="7.55617">
        <ele>99</ele>
        <time>2016-05-22T09:36:47Z</time>
      </trkpt>
      <trkpt lat="43.86994" lon="7.55597">
        <ele>99</ele>
        <time>2016-05-22T09:37:14Z</time>
      </trkpt>
      <trkpt lat="43.86975" lon="7.55578">
        <ele>102</ele>
        <time>2016-05-22T09:37:34Z</time>
      </trkpt>
      <trkpt lat="43.86956" lon="7.55558">
        <ele>97</ele>
        <time>2016-05-22T09:37:53Z</time>
      </trkpt>
      <trkpt lat="43.86937" lon="7.55535">
        <ele>96</ele>
        <time>2016-05-22T09:38:12Z</time>
      </trkpt>
      <trkpt lat="43.86921" lon="7.55515">
        <ele>93</ele>
        <time>2016-05-22T09:38:31Z</time>
      </trkpt>
      <trkpt lat="43.86902" lon="7.55495">
        <ele>92</ele>
        <time>2016-05-22T09:38:51Z</time>
      </trkpt>
      <trkpt lat="43.86894" lon="7.5547">
        <ele>90</ele>
        <time>2016-05-22T09:39:10Z</time>
      </trkpt>
      <trkpt lat="43.86905" lon="7.5545">
        <ele>92</ele>
        <time>2016-05-22T09:39:43Z</time>
      </trkpt>
      <trkpt lat="43.8689" lon="7.55438">
        <ele>92</ele>
        <time>2016-05-22T09:40:10Z</time>
      </trkpt>
      <trkpt lat="43.86872" lon="7.55438">
        <ele>111</ele>
        <time>2016-05-22T09:40:59Z</time>
      </trkpt>
      <trkpt lat="43.86883" lon="7.55457">
        <ele>132</ele>
        <time>2016-05-22T09:41:52Z</time>
      </trkpt>
      <trkpt lat="43.86894" lon="7.55437">
        <ele>88</ele>
        <time>2016-05-22T09:45:18Z</time>
      </trkpt>
      <trkpt lat="43.86911" lon="7.5544">
        <ele>90</ele>
        <time>2016-05-22T09:47:09Z</time>
      </trkpt>
      <trkpt lat="43.86925" lon="7.5545">
        <ele>82</ele>
        <time>2016-05-22T09:47:31Z</time>
      </trkpt>
      <trkpt lat="43.8695" lon="7.55457">
        <ele>75</ele>
        <time>2016-05-22T09:47:51Z</time>
      </trkpt>
      <trkpt lat="43.86973" lon="7.55459">
        <ele>81</ele>
        <time>2016-05-22T09:48:11Z</time>
      </trkpt>
      <trkpt lat="43.86992" lon="7.55464">
        <ele>78</ele>
        <time>2016-05-22T09:48:30Z</time>
      </trkpt>
      <trkpt lat="43.87009" lon="7.5547">
        <ele>88</ele>
        <time>2016-05-22T09:49:18Z</time>
      </trkpt>
      <trkpt lat="43.87026" lon="7.55468">
        <ele>103</ele>
        <time>2016-05-22T09:53:33Z</time>
      </trkpt>
      <trkpt lat="43.87017" lon="7.55448">
        <ele>103</ele>
        <time>2016-05-22T09:54:50Z</time>
      </trkpt>
      <trkpt lat="43.87001" lon="7.55426">
        <ele>101</ele>
        <time>2016-05-22T09:55:10Z</time>
      </trkpt>
      <trkpt lat="43.87003" lon="7.55401">
        <ele>100</ele>
        <time>2016-05-22T09:55:30Z</time>
      </trkpt>
      <trkpt lat="43.87006" lon="7.5537">
        <ele>104</ele>
        <time>2016-05-22T09:55:50Z</time>
      </trkpt>
      <trkpt lat="43.87007" lon="7.55343">
        <ele>107</ele>
        <time>2016-05-22T09:56:09Z</time>
      </trkpt>
      <trkpt lat="43.87014" lon="7.55313">
        <ele>110</ele>
        <time>2016-05-22T09:56:29Z</time>
      </trkpt>
      <trkpt lat="43.86997" lon="7.55319">
        <ele>114</ele>
        <time>2016-05-22T09:57:12Z</time>
      </trkpt>
      <trkpt lat="43.86985" lon="7.55301">
        <ele>114</ele>
        <time>2016-05-22T09:57:43Z</time>
      </trkpt>
      <trkpt lat="43.86986" lon="7.5527">
        <ele>115</ele>
        <time>2016-05-22T09:58:03Z</time>
      </trkpt>
      <trkpt lat="43.86995" lon="7.55245">
        <ele>115</ele>
        <time>2016-05-22T09:58:22Z</time>
      </trkpt>
      <trkpt lat="43.87013" lon="7.55235">
        <ele>112</ele>
        <time>2016-05-22T09:58:42Z</time>
      </trkpt>
      <trkpt lat="43.87031" lon="7.55235">
        <ele>112</ele>
        <time>2016-05-22T09:59:06Z</time>
      </trkpt>
      <trkpt lat="43.87049" lon="7.55235">
        <ele>117</ele>
        <time>2016-05-22T09:59:26Z</time>
      </trkpt>
      <trkpt lat="43.87068" lon="7.55247">
        <ele>119</ele>
        <time>2016-05-22T09:59:46Z</time>
      </trkpt>
      <trkpt lat="43.87085" lon="7.55266">
        <ele>116</ele>
        <time>2016-05-22T10:00:05Z</time>
      </trkpt>
      <trkpt lat="43.87097" lon="7.5529">
        <ele>119</ele>
        <time>2016-05-22T10:00:24Z</time>
      </trkpt>
      <trkpt lat="43.87107" lon="7.5527">
        <ele>119</ele>
        <time>2016-05-22T10:01:15Z</time>
      </trkpt>
      <trkpt lat="43.87121" lon="7.55255">
        <ele>128</ele>
        <time>2016-05-22T10:04:10Z</time>
      </trkpt>
      <trkpt lat="43.8713" lon="7.55235">
        <ele>132</ele>
        <time>2016-05-22T10:04:51Z</time>
      </trkpt>
      <trkpt lat="43.87136" lon="7.55212">
        <ele>133</ele>
        <time>2016-05-22T10:05:25Z</time>
      </trkpt>
      <trkpt lat="43.87125" lon="7.55194">
        <ele>139</ele>
        <time>2016-05-22T10:06:01Z</time>
      </trkpt>
      <trkpt lat="43.87116" lon="7.55174">
        <ele>135</ele>
        <time>2016-05-22T10:06:21Z</time>
      </trkpt>
      <trkpt lat="43.87104" lon="7.55156">
        <ele>136</ele>
        <time>2016-05-22T10:06:43Z</time>
      </trkpt>
      <trkpt lat="43.87072" lon="7.55131">
        <ele>143</ele>
        <time>2016-05-22T10:07:03Z</time>
      </trkpt>
      <trkpt lat="43.87054" lon="7.55121">
        <ele>144</ele>
        <time>2016-05-22T10:07:22Z</time>
      </trkpt>
      <trkpt lat="43.87036" lon="7.55119">
        <ele>149</ele>
        <time>2016-05-22T10:07:42Z</time>
      </trkpt>
      <trkpt lat="43.87015" lon="7.55125">
        <ele>150</ele>
        <time>2016-05-22T10:08:01Z</time>
      </trkpt>
      <trkpt lat="43.86998" lon="7.55132">
        <ele>150</ele>
        <time>2016-05-22T10:08:52Z</time>
      </trkpt>
      <trkpt lat="43.86983" lon="7.55141">
        <ele>150</ele>
        <time>2016-05-22T10:09:31Z</time>
      </trkpt>
      <trkpt lat="43.86965" lon="7.55144">
        <ele>156</ele>
        <time>2016-05-22T10:09:55Z</time>
      </trkpt>
      <trkpt lat="43.86969" lon="7.55122">
        <ele>150</ele>
        <time>2016-05-22T10:13:41Z</time>
      </trkpt>
      <trkpt lat="43.86975" lon="7.55091">
        <ele>146</ele>
        <time>2016-05-22T10:14:00Z</time>
      </trkpt>
      <trkpt lat="43.86989" lon="7.55063">
        <ele>147</ele>
        <time>2016-05-22T10:14:19Z</time>
      </trkpt>
      <trkpt lat="43.87004" lon="7.55049">
        <ele>139</ele>
        <time>2016-05-22T10:14:48Z</time>
      </trkpt>
      <trkpt lat="43.87017" lon="7.55029">
        <ele>134</ele>
        <time>2016-05-22T10:15:07Z</time>
      </trkpt>
      <trkpt lat="43.87032" lon="7.55008">
        <ele>134</ele>
        <time>2016-05-22T10:15:26Z</time>
      </trkpt>
      <trkpt lat="43.87048" lon="7.54998">
        <ele>137</ele>
        <time>2016-05-22T10:15:49Z</time>
      </trkpt>
      <trkpt lat="43.87071" lon="7.54993">
        <ele>140</ele>
        <time>2016-05-22T10:16:09Z</time>
      </trkpt>
      <trkpt lat="43.87087" lon="7.54978">
        <ele>140</ele>
        <time>2016-05-22T10:16:28Z</time>
      </trkpt>
      <trkpt lat="43.87105" lon="7.54968">
        <ele>142</ele>
        <time>2016-05-22T10:16:47Z</time>
      </trkpt>
      <trkpt lat="43.87128" lon="7.54954">
        <ele>149</ele>
        <time>2016-05-22T10:17:05Z</time>
      </trkpt>
      <trkpt lat="43.87151" lon="7.54941">
        <ele>146</ele>
        <time>2016-05-22T10:17:25Z</time>
      </trkpt>
      <trkpt lat="43.87169" lon="7.54923">
        <ele>150</ele>
        <time>2016-05-22T10:17:45Z</time>
      </trkpt>
      <trkpt lat="43.87191" lon="7.54916">
        <ele>148</ele>
        <time>2016-05-22T10:18:05Z</time>
      </trkpt>
      <trkpt lat="43.87213" lon="7.54904">
        <ele>149</ele>
        <time>2016-05-22T10:18:25Z</time>
      </trkpt>
      <trkpt lat="43.87235" lon="7.54892">
        <ele>149</ele>
        <time>2016-05-22T10:18:44Z</time>
      </trkpt>
      <trkpt lat="43.87249" lon="7.54877">
        <ele>148</ele>
        <time>2016-05-22T10:19:07Z</time>
      </trkpt>
      <trkpt lat="43.87265" lon="7.54868">
        <ele>147</ele>
        <time>2016-05-22T10:19:28Z</time>
      </trkpt>
      <trkpt lat="43.87282" lon="7.54849">
        <ele>152</ele>
        <time>2016-05-22T10:19:48Z</time>
      </trkpt>
      <trkpt lat="43.87285" lon="7.54825">
        <ele>154</ele>
        <time>2016-05-22T10:20:07Z</time>
      </trkpt>
      <trkpt lat="43.87297" lon="7.54807">
        <ele>152</ele>
        <time>2016-05-22T10:20:40Z</time>
      </trkpt>
      <trkpt lat="43.87309" lon="7.54789">
        <ele>153</ele>
        <time>2016-05-22T10:21:02Z</time>
      </trkpt>
      <trkpt lat="43.87321" lon="7.54768">
        <ele>154</ele>
        <time>2016-05-22T10:21:22Z</time>
      </trkpt>
      <trkpt lat="43.87331" lon="7.54748">
        <ele>157</ele>
        <time>2016-05-22T10:21:41Z</time>
      </trkpt>
      <trkpt lat="43.87337" lon="7.54726">
        <ele>164</ele>
        <time>2016-05-22T10:22:10Z</time>
      </trkpt>
      <trkpt lat="43.87346" lon="7.54704">
        <ele>165</ele>
        <time>2016-05-22T10:22:32Z</time>
      </trkpt>
      <trkpt lat="43.87357" lon="7.54686">
        <ele>166</ele>
        <time>2016-05-22T10:22:52Z</time>
      </trkpt>
      <trkpt lat="43.87369" lon="7.54664">
        <ele>170</ele>
        <time>2016-05-22T10:23:12Z</time>
      </trkpt>
      <trkpt lat="43.87379" lon="7.54643">
        <ele>173</ele>
        <time>2016-05-22T10:23:31Z</time>
      </trkpt>
      <trkpt lat="43.87388" lon="7.54622">
        <ele>170</ele>
        <time>2016-05-22T10:23:53Z</time>
      </trkpt>
      <trkpt lat="43.87399" lon="7.54604">
        <ele>172</ele>
        <time>2016-05-22T10:24:14Z</time>
      </trkpt>
      <trkpt lat="43.87406" lon="7.54581">
        <ele>176</ele>
        <time>2016-05-22T10:24:33Z</time>
      </trkpt>
      <trkpt lat="43.87413" lon="7.54559">
        <ele>179</ele>
        <time>2016-05-22T10:25:02Z</time>
      </trkpt>
      <trkpt lat="43.87421" lon="7.54537">
        <ele>184</ele>
        <time>2016-05-22T10:25:25Z</time>
      </trkpt>
      <trkpt lat="43.87424" lon="7.54513">
        <ele>188</ele>
        <time>2016-05-22T10:25:48Z</time>
      </trkpt>
      <trkpt lat="43.8743" lon="7.5449">
        <ele>192</ele>
        <time>2016-05-22T10:26:15Z</time>
      </trkpt>
      <trkpt lat="43.87451" lon="7.54495">
        <ele>193</ele>
        <time>2016-05-22T10:26:34Z</time>
      </trkpt>
      <trkpt lat="43.87468" lon="7.54505">
        <ele>194</ele>
        <time>2016-05-22T10:26:53Z</time>
      </trkpt>
      <trkpt lat="43.87489" lon="7.54508">
        <ele>196</ele>
        <time>2016-05-22T10:27:13Z</time>
      </trkpt>
      <trkpt lat="43.87506" lon="7.54519">
        <ele>193</ele>
        <time>2016-05-22T10:27:32Z</time>
      </trkpt>
      <trkpt lat="43.8753" lon="7.54532">
        <ele>194</ele>
        <time>2016-05-22T10:27:51Z</time>
      </trkpt>
      <trkpt lat="43.87548" lon="7.54537">
        <ele>192</ele>
        <time>2016-05-22T10:28:10Z</time>
      </trkpt>
      <trkpt lat="43.87571" lon="7.5454">
        <ele>187</ele>
        <time>2016-05-22T10:28:30Z</time>
      </trkpt>
      <trkpt lat="43.87577" lon="7.54562">
        <ele>175</ele>
        <time>2016-05-22T10:29:02Z</time>
      </trkpt>
      <trkpt lat="43.87592" lon="7.54585">
        <ele>186</ele>
        <time>2016-05-22T10:29:20Z</time>
      </trkpt>
      <trkpt lat="43.87611" lon="7.54589">
        <ele>186</ele>
        <time>2016-05-22T10:29:40Z</time>
      </trkpt>
      <trkpt lat="43.87627" lon="7.54589">
        <ele>179</ele>
        <time>2016-05-22T10:30:01Z</time>
      </trkpt>
      <trkpt lat="43.87643" lon="7.54565">
        <ele>175</ele>
        <time>2016-05-22T10:30:21Z</time>
      </trkpt>
      <trkpt lat="43.87662" lon="7.54558">
        <ele>172</ele>
        <time>2016-05-22T10:30:40Z</time>
      </trkpt>
      <trkpt lat="43.87676" lon="7.54545">
        <ele>171</ele>
        <time>2016-05-22T10:31:12Z</time>
      </trkpt>
      <trkpt lat="43.87662" lon="7.5453">
        <ele>184</ele>
        <time>2016-05-22T10:31:48Z</time>
      </trkpt>
      <trkpt lat="43.87644" lon="7.5453">
        <ele>187</ele>
        <time>2016-05-22T10:32:21Z</time>
      </trkpt>
      <trkpt lat="43.87644" lon="7.54506">
        <ele>182</ele>
        <time>2016-05-22T10:32:56Z</time>
      </trkpt>
      <trkpt lat="43.87636" lon="7.54477">
        <ele>186</ele>
        <time>2016-05-22T10:33:15Z</time>
      </trkpt>
      <trkpt lat="43.87626" lon="7.54453">
        <ele>184</ele>
        <time>2016-05-22T10:33:35Z</time>
      </trkpt>
      <trkpt lat="43.87619" lon="7.5443">
        <ele>184</ele>
        <time>2016-05-22T10:33:55Z</time>
      </trkpt>
      <trkpt lat="43.87613" lon="7.5441">
        <ele>183</ele>
        <time>2016-05-22T10:34:24Z</time>
      </trkpt>
      <trkpt lat="43.87591" lon="7.54395">
        <ele>181</ele>
        <time>2016-05-22T10:34:44Z</time>
      </trkpt>
      <trkpt lat="43.87577" lon="7.54379">
        <ele>182</ele>
        <time>2016-05-22T10:35:06Z</time>
      </trkpt>
      <trkpt lat="43.87561" lon="7.54388">
        <ele>190</ele>
        <time>2016-05-22T10:35:40Z</time>
      </trkpt>
      <trkpt lat="43.87546" lon="7.54372">
        <ele>191</ele>
        <time>2016-05-22T10:36:03Z</time>
      </trkpt>
      <trkpt lat="43.87541" lon="7.54349">
        <ele>191</ele>
        <time>2016-05-22T10:36:29Z</time>
      </trkpt>
      <trkpt lat="43.87548" lon="7.54328">
        <ele>190</ele>
        <time>2016-05-22T10:36:51Z</time>
      </trkpt>
      <trkpt lat="43.87559" lon="7.54305">
        <ele>196</ele>
        <time>2016-05-22T10:37:10Z</time>
      </trkpt>
      <trkpt lat="43.87571" lon="7.54288">
        <ele>197</ele>
        <time>2016-05-22T10:37:32Z</time>
      </trkpt>
      <trkpt lat="43.87584" lon="7.5427">
        <ele>202</ele>
        <time>2016-05-22T10:37:53Z</time>
      </trkpt>
      <trkpt lat="43.87595" lon="7.54253">
        <ele>205</ele>
        <time>2016-05-22T10:38:12Z</time>
      </trkpt>
      <trkpt lat="43.87604" lon="7.54229">
        <ele>213</ele>
        <time>2016-05-22T10:38:32Z</time>
      </trkpt>
      <trkpt lat="43.8762" lon="7.54218">
        <ele>218</ele>
        <time>2016-05-22T10:40:20Z</time>
      </trkpt>
      <trkpt lat="43.87637" lon="7.54223">
        <ele>219</ele>
        <time>2016-05-22T10:45:42Z</time>
      </trkpt>
      <trkpt lat="43.8766" lon="7.54233">
        <ele>218</ele>
        <time>2016-05-22T10:46:02Z</time>
      </trkpt>
      <trkpt lat="43.87686" lon="7.54236">
        <ele>223</ele>
        <time>2016-05-22T10:46:21Z</time>
      </trkpt>
      <trkpt lat="43.87703" lon="7.54244">
        <ele>218</ele>
        <time>2016-05-22T10:46:44Z</time>
      </trkpt>
      <trkpt lat="43.87724" lon="7.54249">
        <ele>225</ele>
        <time>2016-05-22T10:47:03Z</time>
      </trkpt>
      <trkpt lat="43.87742" lon="7.54266">
        <ele>226</ele>
        <time>2016-05-22T10:47:22Z</time>
      </trkpt>
      <trkpt lat="43.87763" lon="7.54274">
        <ele>230</ele>
        <time>2016-05-22T10:47:41Z</time>
      </trkpt>
      <trkpt lat="43.87784" lon="7.54283">
        <ele>231</ele>
        <time>2016-05-22T10:48:01Z</time>
      </trkpt>
      <trkpt lat="43.87803" lon="7.5429">
        <ele>231</ele>
        <time>2016-05-22T10:48:20Z</time>
      </trkpt>
      <trkpt lat="43.87833" lon="7.54285">
        <ele>235</ele>
        <time>2016-05-22T10:48:40Z</time>
      </trkpt>
      <trkpt lat="43.87855" lon="7.54287">
        <ele>228</ele>
        <time>2016-05-22T10:49:00Z</time>
      </trkpt>
      <trkpt lat="43.87882" lon="7.54283">
        <ele>230</ele>
        <time>2016-05-22T10:49:18Z</time>
      </trkpt>
      <trkpt lat="43.87904" lon="7.54286">
        <ele>235</ele>
        <time>2016-05-22T10:49:38Z</time>
      </trkpt>
      <trkpt lat="43.87921" lon="7.54288">
        <ele>235</ele>
        <time>2016-05-22T10:50:10Z</time>
      </trkpt>
      <trkpt lat="43.87938" lon="7.54293">
        <ele>229</ele>
        <time>2016-05-22T10:51:08Z</time>
      </trkpt>
      <trkpt lat="43.87962" lon="7.54294">
        <ele>229</ele>
        <time>2016-05-22T10:51:27Z</time>
      </trkpt>
      <trkpt lat="43.87986" lon="7.5429">
        <ele>230</ele>
        <time>2016-05-22T10:51:46Z</time>
      </trkpt>
      <trkpt lat="43.88009" lon="7.54303">
        <ele>226</ele>
        <time>2016-05-22T10:52:06Z</time>
      </trkpt>
      <trkpt lat="43.88025" lon="7.54312">
        <ele>222</ele>
        <time>2016-05-22T10:52:26Z</time>
      </trkpt>
      <trkpt lat="43.88041" lon="7.54327">
        <ele>220</ele>
        <time>2016-05-22T10:52:46Z</time>
      </trkpt>
      <trkpt lat="43.88067" lon="7.54336">
        <ele>224</ele>
        <time>2016-05-22T10:53:06Z</time>
      </trkpt>
      <trkpt lat="43.88079" lon="7.54314">
        <ele>214</ele>
        <time>2016-05-22T10:53:26Z</time>
      </trkpt>
      <trkpt lat="43.88099" lon="7.54312">
        <ele>212</ele>
        <time>2016-05-22T10:53:45Z</time>
      </trkpt>
      <trkpt lat="43.88121" lon="7.54308">
        <ele>215</ele>
        <time>2016-05-22T10:54:04Z</time>
      </trkpt>
      <trkpt lat="43.88143" lon="7.54303">
        <ele>217</ele>
        <time>2016-05-22T10:54:23Z</time>
      </trkpt>
      <trkpt lat="43.88159" lon="7.54299">
        <ele>209</ele>
        <time>2016-05-22T10:54:43Z</time>
      </trkpt>
      <trkpt lat="43.88164" lon="7.54269">
        <ele>205</ele>
        <time>2016-05-22T10:55:03Z</time>
      </trkpt>
      <trkpt lat="43.88153" lon="7.54238">
        <ele>202</ele>
        <time>2016-05-22T10:55:22Z</time>
      </trkpt>
      <trkpt lat="43.88166" lon="7.54222">
        <ele>201</ele>
        <time>2016-05-22T10:56:16Z</time>
      </trkpt>
      <trkpt lat="43.88182" lon="7.54206">
        <ele>195</ele>
        <time>2016-05-22T10:56:35Z</time>
      </trkpt>
      <trkpt lat="43.88184" lon="7.54174">
        <ele>197</ele>
        <time>2016-05-22T10:56:54Z</time>
      </trkpt>
      <trkpt lat="43.88189" lon="7.54147">
        <ele>201</ele>
        <time>2016-05-22T10:57:13Z</time>
      </trkpt>
      <trkpt lat="43.882" lon="7.54127">
        <ele>206</ele>
        <time>2016-05-22T10:57:32Z</time>
      </trkpt>
      <trkpt lat="43.88217" lon="7.54128">
        <ele>208</ele>
        <time>2016-05-22T10:57:53Z</time>
      </trkpt>
      <trkpt lat="43.88236" lon="7.54134">
        <ele>209</ele>
        <time>2016-05-22T10:58:13Z</time>
      </trkpt>
      <trkpt lat="43.88257" lon="7.54137">
        <ele>210</ele>
        <time>2016-05-22T10:58:33Z</time>
      </trkpt>
      <trkpt lat="43.88281" lon="7.54143">
        <ele>215</ele>
        <time>2016-05-22T10:58:52Z</time>
      </trkpt>
      <trkpt lat="43.88308" lon="7.54148">
        <ele>212</ele>
        <time>2016-05-22T10:59:12Z</time>
      </trkpt>
      <trkpt lat="43.88336" lon="7.54146">
        <ele>207</ele>
        <time>2016-05-22T10:59:31Z</time>
      </trkpt>
      <trkpt lat="43.88351" lon="7.54134">
        <ele>196</ele>
        <time>2016-05-22T10:59:52Z</time>
      </trkpt>
      <trkpt lat="43.88369" lon="7.5413">
        <ele>192</ele>
        <time>2016-05-22T11:00:13Z</time>
      </trkpt>
      <trkpt lat="43.88393" lon="7.54122">
        <ele>190</ele>
        <time>2016-05-22T11:00:32Z</time>
      </trkpt>
      <trkpt lat="43.88403" lon="7.54097">
        <ele>185</ele>
        <time>2016-05-22T11:00:51Z</time>
      </trkpt>
      <trkpt lat="43.88416" lon="7.54079">
        <ele>181</ele>
        <time>2016-05-22T11:01:11Z</time>
      </trkpt>
      <trkpt lat="43.88434" lon="7.54065">
        <ele>186</ele>
        <time>2016-05-22T11:01:30Z</time>
      </trkpt>
      <trkpt lat="43.88445" lon="7.54047">
        <ele>178</ele>
        <time>2016-05-22T11:02:12Z</time>
      </trkpt>
      <trkpt lat="43.88462" lon="7.54044">
        <ele>172</ele>
        <time>2016-05-22T11:02:41Z</time>
      </trkpt>
      <trkpt lat="43.88488" lon="7.54055">
        <ele>176</ele>
        <time>2016-05-22T11:03:00Z</time>
      </trkpt>
      <trkpt lat="43.88507" lon="7.5406">
        <ele>179</ele>
        <time>2016-05-22T11:03:20Z</time>
      </trkpt>
      <trkpt lat="43.88509" lon="7.5404">
        <ele>183</ele>
        <time>2016-05-22T11:05:37Z</time>
      </trkpt>
      <trkpt lat="43.88524" lon="7.54053">
        <ele>187</ele>
        <time>2016-05-22T11:06:38Z</time>
      </trkpt>
      <trkpt lat="43.88545" lon="7.54059">
        <ele>184</ele>
        <time>2016-05-22T11:06:57Z</time>
      </trkpt>
      <trkpt lat="43.88561" lon="7.54068">
        <ele>175</ele>
        <time>2016-05-22T11:07:18Z</time>
      </trkpt>
      <trkpt lat="43.8858" lon="7.54061">
        <ele>169</ele>
        <time>2016-05-22T11:07:38Z</time>
      </trkpt>
      <trkpt lat="43.88598" lon="7.54062">
        <ele>158</ele>
        <time>2016-05-22T11:08:30Z</time>
      </trkpt>
      <trkpt lat="43.88608" lon="7.54044">
        <ele>158</ele>
        <time>2016-05-22T11:09:12Z</time>
      </trkpt>
      <trkpt lat="43.88627" lon="7.54027">
        <ele>157</ele>
        <time>2016-05-22T11:09:32Z</time>
      </trkpt>
      <trkpt lat="43.88613" lon="7.54013">
        <ele>150</ele>
        <time>2016-05-22T11:10:12Z</time>
      </trkpt>
      <trkpt lat="43.88597" lon="7.53985">
        <ele>168</ele>
        <time>2016-05-22T11:10:32Z</time>
      </trkpt>
      <trkpt lat="43.88579" lon="7.53972">
        <ele>151</ele>
        <time>2016-05-22T11:10:51Z</time>
      </trkpt>
      <trkpt lat="43.88555" lon="7.5397">
        <ele>143</ele>
        <time>2016-05-22T11:11:11Z</time>
      </trkpt>
      <trkpt lat="43.88538" lon="7.53972">
        <ele>136</ele>
        <time>2016-05-22T11:11:36Z</time>
      </trkpt>
      <trkpt lat="43.88537" lon="7.53966">
        <ele>137</ele>
        <time>2016-05-22T11:13:07Z</time>
      </trkpt>
      <trkpt lat="43.88537" lon="7.53966">
        <ele>137</ele>
        <time>2016-05-22T11:13:08Z</time>
      </trkpt>
      <trkpt lat="43.8853" lon="7.53978">
        <ele>140</ele>
        <time>2016-05-22T12:02:32Z</time>
      </trkpt>
      <trkpt lat="43.88547" lon="7.53976">
        <ele>138</ele>
        <time>2016-05-22T12:03:36Z</time>
      </trkpt>
      <trkpt lat="43.88565" lon="7.53977">
        <ele>138</ele>
        <time>2016-05-22T12:04:10Z</time>
      </trkpt>
      <trkpt lat="43.88582" lon="7.53978">
        <ele>139</ele>
        <time>2016-05-22T12:04:41Z</time>
      </trkpt>
      <trkpt lat="43.88596" lon="7.53992">
        <ele>142</ele>
        <time>2016-05-22T12:05:16Z</time>
      </trkpt>
      <trkpt lat="43.88611" lon="7.54014">
        <ele>140</ele>
        <time>2016-05-22T12:05:35Z</time>
      </trkpt>
      <trkpt lat="43.88628" lon="7.54022">
        <ele>140</ele>
        <time>2016-05-22T12:05:54Z</time>
      </trkpt>
      <trkpt lat="43.88645" lon="7.5403">
        <ele>143</ele>
        <time>2016-05-22T12:06:22Z</time>
      </trkpt>
      <trkpt lat="43.88654" lon="7.54009">
        <ele>157</ele>
        <time>2016-05-22T12:07:08Z</time>
      </trkpt>
      <trkpt lat="43.88672" lon="7.5401">
        <ele>159</ele>
        <time>2016-05-22T12:07:52Z</time>
      </trkpt>
      <trkpt lat="43.88684" lon="7.54027">
        <ele>160</ele>
        <time>2016-05-22T12:08:15Z</time>
      </trkpt>
      <trkpt lat="43.88688" lon="7.54003">
        <ele>180</ele>
        <time>2016-05-22T12:09:11Z</time>
      </trkpt>
      <trkpt lat="43.88696" lon="7.53983">
        <ele>180</ele>
        <time>2016-05-22T12:09:54Z</time>
      </trkpt>
      <trkpt lat="43.88707" lon="7.53964">
        <ele>182</ele>
        <time>2016-05-22T12:10:25Z</time>
      </trkpt>
      <trkpt lat="43.88713" lon="7.53942">
        <ele>176</ele>
        <time>2016-05-22T12:10:59Z</time>
      </trkpt>
      <trkpt lat="43.88714" lon="7.53914">
        <ele>179</ele>
        <time>2016-05-22T12:11:19Z</time>
      </trkpt>
      <trkpt lat="43.88718" lon="7.53892">
        <ele>175</ele>
        <time>2016-05-22T12:11:40Z</time>
      </trkpt>
      <trkpt lat="43.88722" lon="7.53864">
        <ele>181</ele>
        <time>2016-05-22T12:12:00Z</time>
      </trkpt>
      <trkpt lat="43.88733" lon="7.53845">
        <ele>186</ele>
        <time>2016-05-22T12:12:28Z</time>
      </trkpt>
      <trkpt lat="43.88734" lon="7.53809">
        <ele>209</ele>
        <time>2016-05-22T12:12:48Z</time>
      </trkpt>
      <trkpt lat="43.88742" lon="7.53824">
        <ele>205</ele>
        <time>2016-05-22T12:15:56Z</time>
      </trkpt>
      <trkpt lat="43.88747" lon="7.53802">
        <ele>200</ele>
        <time>2016-05-22T12:16:30Z</time>
      </trkpt>
      <trkpt lat="43.88753" lon="7.53806">
        <ele>205</ele>
        <time>2016-05-22T12:18:16Z</time>
      </trkpt>
      <trkpt lat="43.88765" lon="7.53791">
        <ele>211</ele>
        <time>2016-05-22T12:20:38Z</time>
      </trkpt>
      <trkpt lat="43.88761" lon="7.53767">
        <ele>206</ele>
        <time>2016-05-22T12:21:20Z</time>
      </trkpt>
      <trkpt lat="43.88768" lon="7.5379">
        <ele>201</ele>
        <time>2016-05-22T12:23:44Z</time>
      </trkpt>
      <trkpt lat="43.88781" lon="7.53803">
        <ele>203</ele>
        <time>2016-05-22T12:24:21Z</time>
      </trkpt>
      <trkpt lat="43.88798" lon="7.53802">
        <ele>205</ele>
        <time>2016-05-22T12:25:09Z</time>
      </trkpt>
      <trkpt lat="43.88816" lon="7.53795">
        <ele>201</ele>
        <time>2016-05-22T12:25:28Z</time>
      </trkpt>
      <trkpt lat="43.88839" lon="7.538">
        <ele>194</ele>
        <time>2016-05-22T12:25:48Z</time>
      </trkpt>
      <trkpt lat="43.88858" lon="7.53785">
        <ele>193</ele>
        <time>2016-05-22T12:26:07Z</time>
      </trkpt>
      <trkpt lat="43.88875" lon="7.53778">
        <ele>195</ele>
        <time>2016-05-22T12:26:52Z</time>
      </trkpt>
      <trkpt lat="43.88891" lon="7.53767">
        <ele>195</ele>
        <time>2016-05-22T12:27:15Z</time>
      </trkpt>
      <trkpt lat="43.88906" lon="7.53779">
        <ele>195</ele>
        <time>2016-05-22T12:27:38Z</time>
      </trkpt>
      <trkpt lat="43.88925" lon="7.53787">
        <ele>188</ele>
        <time>2016-05-22T12:27:57Z</time>
      </trkpt>
      <trkpt lat="43.88948" lon="7.5378">
        <ele>191</ele>
        <time>2016-05-22T12:28:17Z</time>
      </trkpt>
      <trkpt lat="43.8896" lon="7.5376">
        <ele>200</ele>
        <time>2016-05-22T12:28:36Z</time>
      </trkpt>
      <trkpt lat="43.88969" lon="7.53738">
        <ele>204</ele>
        <time>2016-05-22T12:29:01Z</time>
      </trkpt>
      <trkpt lat="43.88986" lon="7.53732">
        <ele>200</ele>
        <time>2016-05-22T12:29:21Z</time>
      </trkpt>
      <trkpt lat="43.89004" lon="7.53725">
        <ele>197</ele>
        <time>2016-05-22T12:29:41Z</time>
      </trkpt>
      <trkpt lat="43.88999" lon="7.53698">
        <ele>207</ele>
        <time>2016-05-22T12:30:00Z</time>
      </trkpt>
      <trkpt lat="43.89001" lon="7.53673">
        <ele>205</ele>
        <time>2016-05-22T12:30:36Z</time>
      </trkpt>
      <trkpt lat="43.89003" lon="7.53649">
        <ele>208</ele>
        <time>2016-05-22T12:31:08Z</time>
      </trkpt>
      <trkpt lat="43.89012" lon="7.53629">
        <ele>207</ele>
        <time>2016-05-22T12:31:31Z</time>
      </trkpt>
      <trkpt lat="43.89026" lon="7.53606">
        <ele>206</ele>
        <time>2016-05-22T12:31:50Z</time>
      </trkpt>
      <trkpt lat="43.89042" lon="7.53598">
        <ele>209</ele>
        <time>2016-05-22T12:32:17Z</time>
      </trkpt>
      <trkpt lat="43.89058" lon="7.53592">
        <ele>214</ele>
        <time>2016-05-22T12:32:47Z</time>
      </trkpt>
      <trkpt lat="43.89071" lon="7.53577">
        <ele>217</ele>
        <time>2016-05-22T12:33:18Z</time>
      </trkpt>
      <trkpt lat="43.89085" lon="7.53558">
        <ele>220</ele>
        <time>2016-05-22T12:33:38Z</time>
      </trkpt>
      <trkpt lat="43.89096" lon="7.53532">
        <ele>217</ele>
        <time>2016-05-22T12:33:57Z</time>
      </trkpt>
      <trkpt lat="43.89112" lon="7.53516">
        <ele>223</ele>
        <time>2016-05-22T12:34:16Z</time>
      </trkpt>
      <trkpt lat="43.89127" lon="7.53504">
        <ele>237</ele>
        <time>2016-05-22T12:35:17Z</time>
      </trkpt>
      <trkpt lat="43.89131" lon="7.53478">
        <ele>235</ele>
        <time>2016-05-22T12:35:37Z</time>
      </trkpt>
      <trkpt lat="43.89143" lon="7.5346">
        <ele>229</ele>
        <time>2016-05-22T12:36:01Z</time>
      </trkpt>
      <trkpt lat="43.8916" lon="7.53456">
        <ele>222</ele>
        <time>2016-05-22T12:36:28Z</time>
      </trkpt>
      <trkpt lat="43.89177" lon="7.53451">
        <ele>222</ele>
        <time>2016-05-22T12:36:48Z</time>
      </trkpt>
      <trkpt lat="43.89189" lon="7.5343">
        <ele>231</ele>
        <time>2016-05-22T12:37:07Z</time>
      </trkpt>
      <trkpt lat="43.89192" lon="7.53406">
        <ele>233</ele>
        <time>2016-05-22T12:37:26Z</time>
      </trkpt>
      <trkpt lat="43.89202" lon="7.53388">
        <ele>235</ele>
        <time>2016-05-22T12:37:52Z</time>
      </trkpt>
      <trkpt lat="43.89221" lon="7.53383">
        <ele>236</ele>
        <time>2016-05-22T12:38:11Z</time>
      </trkpt>
      <trkpt lat="43.89242" lon="7.53385">
        <ele>238</ele>
        <time>2016-05-22T12:38:30Z</time>
      </trkpt>
      <trkpt lat="43.89266" lon="7.53391">
        <ele>237</ele>
        <time>2016-05-22T12:38:50Z</time>
      </trkpt>
      <trkpt lat="43.89283" lon="7.53386">
        <ele>231</ele>
        <time>2016-05-22T12:39:21Z</time>
      </trkpt>
      <trkpt lat="43.89297" lon="7.53391">
        <ele>217</ele>
        <time>2016-05-22T12:39:49Z</time>
      </trkpt>
      <trkpt lat="43.89324" lon="7.53394">
        <ele>217</ele>
        <time>2016-05-22T12:40:09Z</time>
      </trkpt>
      <trkpt lat="43.89344" lon="7.53403">
        <ele>214</ele>
        <time>2016-05-22T12:40:28Z</time>
      </trkpt>
      <trkpt lat="43.89365" lon="7.53398">
        <ele>220</ele>
        <time>2016-05-22T12:40:48Z</time>
      </trkpt>
      <trkpt lat="43.89386" lon="7.53379">
        <ele>226</ele>
        <time>2016-05-22T12:41:07Z</time>
      </trkpt>
      <trkpt lat="43.89404" lon="7.53373">
        <ele>226</ele>
        <time>2016-05-22T12:41:30Z</time>
      </trkpt>
      <trkpt lat="43.89417" lon="7.53392">
        <ele>221</ele>
        <time>2016-05-22T12:41:50Z</time>
      </trkpt>
      <trkpt lat="43.89431" lon="7.53408">
        <ele>222</ele>
        <time>2016-05-22T12:42:12Z</time>
      </trkpt>
      <trkpt lat="43.89455" lon="7.53421">
        <ele>217</ele>
        <time>2016-05-22T12:42:31Z</time>
      </trkpt>
      <trkpt lat="43.89458" lon="7.53444">
        <ele>228</ele>
        <time>2016-05-22T12:42:54Z</time>
      </trkpt>
      <trkpt lat="43.89469" lon="7.53463">
        <ele>223</ele>
        <time>2016-05-22T12:43:15Z</time>
      </trkpt>
      <trkpt lat="43.89476" lon="7.53486">
        <ele>215</ele>
        <time>2016-05-22T12:44:24Z</time>
      </trkpt>
      <trkpt lat="43.89465" lon="7.53505">
        <ele>218</ele>
        <time>2016-05-22T12:44:46Z</time>
      </trkpt>
      <trkpt lat="43.89473" lon="7.53526">
        <ele>215</ele>
        <time>2016-05-22T12:45:07Z</time>
      </trkpt>
      <trkpt lat="43.89497" lon="7.53535">
        <ele>212</ele>
        <time>2016-05-22T12:45:26Z</time>
      </trkpt>
      <trkpt lat="43.89514" lon="7.53537">
        <ele>205</ele>
        <time>2016-05-22T12:48:01Z</time>
      </trkpt>
      <trkpt lat="43.8951" lon="7.53513">
        <ele>196</ele>
        <time>2016-05-22T12:48:28Z</time>
      </trkpt>
      <trkpt lat="43.89525" lon="7.53504">
        <ele>190</ele>
        <time>2016-05-22T12:50:30Z</time>
      </trkpt>
      <trkpt lat="43.89537" lon="7.53485">
        <ele>191</ele>
        <time>2016-05-22T12:50:52Z</time>
      </trkpt>
      <trkpt lat="43.89547" lon="7.53464">
        <ele>194</ele>
        <time>2016-05-22T12:51:24Z</time>
      </trkpt>
      <trkpt lat="43.89563" lon="7.53472">
        <ele>201</ele>
        <time>2016-05-22T12:52:02Z</time>
      </trkpt>
      <trkpt lat="43.89581" lon="7.53474">
        <ele>204</ele>
        <time>2016-05-22T12:52:23Z</time>
      </trkpt>
      <trkpt lat="43.89586" lon="7.5345">
        <ele>202</ele>
        <time>2016-05-22T12:53:54Z</time>
      </trkpt>
      <trkpt lat="43.89587" lon="7.53426">
        <ele>206</ele>
        <time>2016-05-22T12:54:20Z</time>
      </trkpt>
      <trkpt lat="43.89588" lon="7.534">
        <ele>213</ele>
        <time>2016-05-22T12:54:40Z</time>
      </trkpt>
      <trkpt lat="43.89579" lon="7.53379">
        <ele>215</ele>
        <time>2016-05-22T12:55:07Z</time>
      </trkpt>
      <trkpt lat="43.89568" lon="7.53361">
        <ele>228</ele>
        <time>2016-05-22T12:55:31Z</time>
      </trkpt>
      <trkpt lat="43.89569" lon="7.53336">
        <ele>223</ele>
        <time>2016-05-22T12:56:00Z</time>
      </trkpt>
      <trkpt lat="43.89565" lon="7.53313">
        <ele>229</ele>
        <time>2016-05-22T12:56:33Z</time>
      </trkpt>
      <trkpt lat="43.89561" lon="7.53289">
        <ele>228</ele>
        <time>2016-05-22T12:56:56Z</time>
      </trkpt>
      <trkpt lat="43.89561" lon="7.53265">
        <ele>232</ele>
        <time>2016-05-22T12:57:22Z</time>
      </trkpt>
      <trkpt lat="43.89572" lon="7.53245">
        <ele>232</ele>
        <time>2016-05-22T12:57:51Z</time>
      </trkpt>
      <trkpt lat="43.89587" lon="7.5323">
        <ele>234</ele>
        <time>2016-05-22T12:58:11Z</time>
      </trkpt>
      <trkpt lat="43.89603" lon="7.53225">
        <ele>239</ele>
        <time>2016-05-22T12:59:36Z</time>
      </trkpt>
      <trkpt lat="43.8962" lon="7.53217">
        <ele>242</ele>
        <time>2016-05-22T13:00:05Z</time>
      </trkpt>
      <trkpt lat="43.89631" lon="7.53193">
        <ele>241</ele>
        <time>2016-05-22T13:00:24Z</time>
      </trkpt>
      <trkpt lat="43.8963" lon="7.53166">
        <ele>240</ele>
        <time>2016-05-22T13:00:44Z</time>
      </trkpt>
      <trkpt lat="43.89633" lon="7.53142">
        <ele>237</ele>
        <time>2016-05-22T13:01:05Z</time>
      </trkpt>
      <trkpt lat="43.89645" lon="7.53124">
        <ele>237</ele>
        <time>2016-05-22T13:01:31Z</time>
      </trkpt>
      <trkpt lat="43.89644" lon="7.53097">
        <ele>246</ele>
        <time>2016-05-22T13:01:50Z</time>
      </trkpt>
      <trkpt lat="43.89656" lon="7.53078">
        <ele>257</ele>
        <time>2016-05-22T13:02:26Z</time>
      </trkpt>
      <trkpt lat="43.89673" lon="7.5307">
        <ele>261</ele>
        <time>2016-05-22T13:02:57Z</time>
      </trkpt>
      <trkpt lat="43.89688" lon="7.53059">
        <ele>264</ele>
        <time>2016-05-22T13:03:19Z</time>
      </trkpt>
      <trkpt lat="43.897" lon="7.5304">
        <ele>265</ele>
        <time>2016-05-22T13:03:46Z</time>
      </trkpt>
      <trkpt lat="43.89701" lon="7.53015">
        <ele>273</ele>
        <time>2016-05-22T13:04:17Z</time>
      </trkpt>
      <trkpt lat="43.89696" lon="7.52993">
        <ele>274</ele>
        <time>2016-05-22T13:04:38Z</time>
      </trkpt>
      <trkpt lat="43.89708" lon="7.52975">
        <ele>288</ele>
        <time>2016-05-22T13:06:23Z</time>
      </trkpt>
      <trkpt lat="43.89726" lon="7.5298">
        <ele>289</ele>
        <time>2016-05-22T13:07:10Z</time>
      </trkpt>
      <trkpt lat="43.89737" lon="7.52962">
        <ele>289</ele>
        <time>2016-05-22T13:07:48Z</time>
      </trkpt>
      <trkpt lat="43.89753" lon="7.52952">
        <ele>295</ele>
        <time>2016-05-22T13:08:12Z</time>
      </trkpt>
      <trkpt lat="43.89769" lon="7.52936">
        <ele>290</ele>
        <time>2016-05-22T13:08:31Z</time>
      </trkpt>
      <trkpt lat="43.89785" lon="7.52926">
        <ele>291</ele>
        <time>2016-05-22T13:08:56Z</time>
      </trkpt>
      <trkpt lat="43.89802" lon="7.52919">
        <ele>300</ele>
        <time>2016-05-22T13:09:15Z</time>
      </trkpt>
      <trkpt lat="43.8982" lon="7.52921">
        <ele>311</ele>
        <time>2016-05-22T13:09:55Z</time>
      </trkpt>
      <trkpt lat="43.89838" lon="7.52922">
        <ele>310</ele>
        <time>2016-05-22T13:10:14Z</time>
      </trkpt>
      <trkpt lat="43.89853" lon="7.52914">
        <ele>318</ele>
        <time>2016-05-22T13:10:43Z</time>
      </trkpt>
      <trkpt lat="43.8987" lon="7.5291">
        <ele>318</ele>
        <time>2016-05-22T13:11:12Z</time>
      </trkpt>
      <trkpt lat="43.89885" lon="7.52924">
        <ele>326</ele>
        <time>2016-05-22T13:12:01Z</time>
      </trkpt>
      <trkpt lat="43.89898" lon="7.52941">
        <ele>329</ele>
        <time>2016-05-22T13:14:03Z</time>
      </trkpt>
      <trkpt lat="43.89903" lon="7.52965">
        <ele>341</ele>
        <time>2016-05-22T13:20:34Z</time>
      </trkpt>
      <trkpt lat="43.89915" lon="7.52983">
        <ele>343</ele>
        <time>2016-05-22T13:20:57Z</time>
      </trkpt>
      <trkpt lat="43.89924" lon="7.53003">
        <ele>344</ele>
        <time>2016-05-22T13:21:24Z</time>
      </trkpt>
      <trkpt lat="43.8993" lon="7.53026">
        <ele>340</ele>
        <time>2016-05-22T13:21:55Z</time>
      </trkpt>
      <trkpt lat="43.89939" lon="7.53049">
        <ele>339</ele>
        <time>2016-05-22T13:22:14Z</time>
      </trkpt>
      <trkpt lat="43.89953" lon="7.53064">
        <ele>349</ele>
        <time>2016-05-22T13:22:37Z</time>
      </trkpt>
      <trkpt lat="43.89969" lon="7.53064">
        <ele>358</ele>
        <time>2016-05-22T13:23:00Z</time>
      </trkpt>
      <trkpt lat="43.89988" lon="7.5307">
        <ele>363</ele>
        <time>2016-05-22T13:23:20Z</time>
      </trkpt>
      <trkpt lat="43.90003" lon="7.53081">
        <ele>355</ele>
        <time>2016-05-22T13:23:43Z</time>
      </trkpt>
      <trkpt lat="43.9002" lon="7.5309">
        <ele>370</ele>
        <time>2016-05-22T13:24:02Z</time>
      </trkpt>
      <trkpt lat="43.90023" lon="7.53114">
        <ele>370</ele>
        <time>2016-05-22T13:24:38Z</time>
      </trkpt>
      <trkpt lat="43.9003" lon="7.53137">
        <ele>372</ele>
        <time>2016-05-22T13:25:03Z</time>
      </trkpt>
      <trkpt lat="43.90045" lon="7.53152">
        <ele>374</ele>
        <time>2016-05-22T13:25:22Z</time>
      </trkpt>
      <trkpt lat="43.90061" lon="7.53166">
        <ele>377</ele>
        <time>2016-05-22T13:25:41Z</time>
      </trkpt>
      <trkpt lat="43.90072" lon="7.53181">
        <ele>375</ele>
        <time>2016-05-22T13:26:05Z</time>
      </trkpt>
      <trkpt lat="43.90089" lon="7.53192">
        <ele>380</ele>
        <time>2016-05-22T13:26:25Z</time>
      </trkpt>
      <trkpt lat="43.90105" lon="7.53202">
        <ele>389</ele>
        <time>2016-05-22T13:26:47Z</time>
      </trkpt>
      <trkpt lat="43.90121" lon="7.53199">
        <ele>385</ele>
        <time>2016-05-22T13:27:06Z</time>
      </trkpt>
      <trkpt lat="43.90132" lon="7.53218">
        <ele>387</ele>
        <time>2016-05-22T13:27:35Z</time>
      </trkpt>
      <trkpt lat="43.90146" lon="7.53234">
        <ele>394</ele>
        <time>2016-05-22T13:28:03Z</time>
      </trkpt>
      <trkpt lat="43.90162" lon="7.53226">
        <ele>393</ele>
        <time>2016-05-22T13:28:29Z</time>
      </trkpt>
      <trkpt lat="43.90174" lon="7.53205">
        <ele>394</ele>
        <time>2016-05-22T13:28:49Z</time>
      </trkpt>
      <trkpt lat="43.90187" lon="7.53189">
        <ele>399</ele>
        <time>2016-05-22T13:29:09Z</time>
      </trkpt>
      <trkpt lat="43.90208" lon="7.53181">
        <ele>410</ele>
        <time>2016-05-22T13:29:28Z</time>
      </trkpt>
      <trkpt lat="43.90225" lon="7.53182">
        <ele>403</ele>
        <time>2016-05-22T13:29:50Z</time>
      </trkpt>
      <trkpt lat="43.90242" lon="7.53187">
        <ele>403</ele>
        <time>2016-05-22T13:30:21Z</time>
      </trkpt>
      <trkpt lat="43.90258" lon="7.53177">
        <ele>414</ele>
        <time>2016-05-22T13:30:50Z</time>
      </trkpt>
      <trkpt lat="43.90273" lon="7.53189">
        <ele>417</ele>
        <time>2016-05-22T13:31:28Z</time>
      </trkpt>
      <trkpt lat="43.90285" lon="7.53207">
        <ele>435</ele>
        <time>2016-05-22T13:34:30Z</time>
      </trkpt>
      <trkpt lat="43.9029" lon="7.53231">
        <ele>438</ele>
        <time>2016-05-22T13:40:20Z</time>
      </trkpt>
      <trkpt lat="43.90311" lon="7.53237">
        <ele>439</ele>
        <time>2016-05-22T13:40:40Z</time>
      </trkpt>
      <trkpt lat="43.90333" lon="7.53245">
        <ele>438</ele>
        <time>2016-05-22T13:40:59Z</time>
      </trkpt>
      <trkpt lat="43.90356" lon="7.53261">
        <ele>444</ele>
        <time>2016-05-22T13:41:18Z</time>
      </trkpt>
      <trkpt lat="43.9037" lon="7.53272">
        <ele>442</ele>
        <time>2016-05-22T13:41:40Z</time>
      </trkpt>
      <trkpt lat="43.90384" lon="7.53277">
        <ele>445</ele>
        <time>2016-05-22T13:42:03Z</time>
      </trkpt>
      <trkpt lat="43.90404" lon="7.53288">
        <ele>443</ele>
        <time>2016-05-22T13:42:22Z</time>
      </trkpt>
      <trkpt lat="43.90425" lon="7.53289">
        <ele>441</ele>
        <time>2016-05-22T13:42:41Z</time>
      </trkpt>
      <trkpt lat="43.90446" lon="7.53287">
        <ele>446</ele>
        <time>2016-05-22T13:43:00Z</time>
      </trkpt>
      <trkpt lat="43.90469" lon="7.53288">
        <ele>450</ele>
        <time>2016-05-22T13:43:20Z</time>
      </trkpt>
      <trkpt lat="43.90486" lon="7.53285">
        <ele>453</ele>
        <time>2016-05-22T13:43:40Z</time>
      </trkpt>
      <trkpt lat="43.90507" lon="7.53282">
        <ele>446</ele>
        <time>2016-05-22T13:43:59Z</time>
      </trkpt>
      <trkpt lat="43.90533" lon="7.5327">
        <ele>456</ele>
        <time>2016-05-22T13:44:19Z</time>
      </trkpt>
      <trkpt lat="43.9054" lon="7.53245">
        <ele>459</ele>
        <time>2016-05-22T13:44:39Z</time>
      </trkpt>
      <trkpt lat="43.90537" lon="7.53213">
        <ele>459</ele>
        <time>2016-05-22T13:44:59Z</time>
      </trkpt>
      <trkpt lat="43.90535" lon="7.53185">
        <ele>460</ele>
        <time>2016-05-22T13:45:19Z</time>
      </trkpt>
      <trkpt lat="43.90539" lon="7.53152">
        <ele>464</ele>
        <time>2016-05-22T13:45:38Z</time>
      </trkpt>
      <trkpt lat="43.90563" lon="7.53144">
        <ele>464</ele>
        <time>2016-05-22T13:45:58Z</time>
      </trkpt>
      <trkpt lat="43.9058" lon="7.53127">
        <ele>467</ele>
        <time>2016-05-22T13:46:17Z</time>
      </trkpt>
      <trkpt lat="43.90578" lon="7.53103">
        <ele>464</ele>
        <time>2016-05-22T13:47:11Z</time>
      </trkpt>
      <trkpt lat="43.90577" lon="7.53079">
        <ele>457</ele>
        <time>2016-05-22T13:47:36Z</time>
      </trkpt>
      <trkpt lat="43.90581" lon="7.53102">
        <ele>471</ele>
        <time>2016-05-22T13:48:38Z</time>
      </trkpt>
      <trkpt lat="43.90573" lon="7.53124">
        <ele>469</ele>
        <time>2016-05-22T13:48:57Z</time>
      </trkpt>
      <trkpt lat="43.90566" lon="7.53146">
        <ele>470</ele>
        <time>2016-05-22T13:49:24Z</time>
      </trkpt>
      <trkpt lat="43.90576" lon="7.53127">
        <ele>470</ele>
        <time>2016-05-22T13:49:57Z</time>
      </trkpt>
      <trkpt lat="43.90583" lon="7.53104">
        <ele>465</ele>
        <time>2016-05-22T13:50:32Z</time>
      </trkpt>
      <trkpt lat="43.9057" lon="7.53088">
        <ele>469</ele>
        <time>2016-05-22T13:51:31Z</time>
      </trkpt>
      <trkpt lat="43.90557" lon="7.5307">
        <ele>469</ele>
        <time>2016-05-22T13:52:04Z</time>
      </trkpt>
      <trkpt lat="43.90542" lon="7.5306">
        <ele>470</ele>
        <time>2016-05-22T13:53:04Z</time>
      </trkpt>
      <trkpt lat="43.90524" lon="7.53042">
        <ele>469</ele>
        <time>2016-05-22T13:53:23Z</time>
      </trkpt>
      <trkpt lat="43.90537" lon="7.53054">
        <ele>466</ele>
        <time>2016-05-22T13:54:19Z</time>
      </trkpt>
      <trkpt lat="43.90558" lon="7.53071">
        <ele>464</ele>
        <time>2016-05-22T13:54:38Z</time>
      </trkpt>
      <trkpt lat="43.90573" lon="7.53084">
        <ele>462</ele>
        <time>2016-05-22T13:55:06Z</time>
      </trkpt>
      <trkpt lat="43.90589" lon="7.53107">
        <ele>461</ele>
        <time>2016-05-22T13:55:25Z</time>
      </trkpt>
      <trkpt lat="43.90605" lon="7.53115">
        <ele>464</ele>
        <time>2016-05-22T13:56:04Z</time>
      </trkpt>
      <trkpt lat="43.9059" lon="7.53107">
        <ele>457</ele>
        <time>2016-05-22T13:56:26Z</time>
      </trkpt>
      <trkpt lat="43.90573" lon="7.53088">
        <ele>460</ele>
        <time>2016-05-22T13:56:45Z</time>
      </trkpt>
      <trkpt lat="43.90587" lon="7.53102">
        <ele>466</ele>
        <time>2016-05-22T14:06:51Z</time>
      </trkpt>
      <trkpt lat="43.90605" lon="7.53111">
        <ele>464</ele>
        <time>2016-05-22T14:07:11Z</time>
      </trkpt>
      <trkpt lat="43.90631" lon="7.53118">
        <ele>460</ele>
        <time>2016-05-22T14:07:30Z</time>
      </trkpt>
      <trkpt lat="43.9065" lon="7.53125">
        <ele>464</ele>
        <time>2016-05-22T14:07:49Z</time>
      </trkpt>
      <trkpt lat="43.90674" lon="7.53133">
        <ele>461</ele>
        <time>2016-05-22T14:08:09Z</time>
      </trkpt>
      <trkpt lat="43.90691" lon="7.53135">
        <ele>457</ele>
        <time>2016-05-22T14:08:29Z</time>
      </trkpt>
      <trkpt lat="43.90712" lon="7.53139">
        <ele>460</ele>
        <time>2016-05-22T14:08:49Z</time>
      </trkpt>
      <trkpt lat="43.90736" lon="7.5314">
        <ele>455</ele>
        <time>2016-05-22T14:09:08Z</time>
      </trkpt>
      <trkpt lat="43.90754" lon="7.5312">
        <ele>459</ele>
        <time>2016-05-22T14:09:27Z</time>
      </trkpt>
      <trkpt lat="43.90771" lon="7.53117">
        <ele>454</ele>
        <time>2016-05-22T14:09:59Z</time>
      </trkpt>
      <trkpt lat="43.90788" lon="7.53112">
        <ele>450</ele>
        <time>2016-05-22T14:10:24Z</time>
      </trkpt>
      <trkpt lat="43.90814" lon="7.53108">
        <ele>451</ele>
        <time>2016-05-22T14:10:43Z</time>
      </trkpt>
      <trkpt lat="43.90833" lon="7.531">
        <ele>446</ele>
        <time>2016-05-22T14:11:02Z</time>
      </trkpt>
      <trkpt lat="43.90848" lon="7.53087">
        <ele>440</ele>
        <time>2016-05-22T14:11:22Z</time>
      </trkpt>
      <trkpt lat="43.90867" lon="7.53076">
        <ele>438</ele>
        <time>2016-05-22T14:11:42Z</time>
      </trkpt>
      <trkpt lat="43.90878" lon="7.53058">
        <ele>440</ele>
        <time>2016-05-22T14:12:05Z</time>
      </trkpt>
      <trkpt lat="43.90891" lon="7.53039">
        <ele>438</ele>
        <time>2016-05-22T14:12:24Z</time>
      </trkpt>
      <trkpt lat="43.9091" lon="7.53027">
        <ele>435</ele>
        <time>2016-05-22T14:12:44Z</time>
      </trkpt>
      <trkpt lat="43.90918" lon="7.53005">
        <ele>434</ele>
        <time>2016-05-22T14:13:05Z</time>
      </trkpt>
      <trkpt lat="43.90942" lon="7.5299">
        <ele>436</ele>
        <time>2016-05-22T14:13:25Z</time>
      </trkpt>
      <trkpt lat="43.90955" lon="7.52975">
        <ele>434</ele>
        <time>2016-05-22T14:13:52Z</time>
      </trkpt>
      <trkpt lat="43.90958" lon="7.52943">
        <ele>434</ele>
        <time>2016-05-22T14:14:11Z</time>
      </trkpt>
      <trkpt lat="43.90968" lon="7.52922">
        <ele>434</ele>
        <time>2016-05-22T14:14:31Z</time>
      </trkpt>
      <trkpt lat="43.90977" lon="7.52895">
        <ele>440</ele>
        <time>2016-05-22T14:14:50Z</time>
      </trkpt>
      <trkpt lat="43.91002" lon="7.52878">
        <ele>435</ele>
        <time>2016-05-22T14:15:10Z</time>
      </trkpt>
      <trkpt lat="43.91023" lon="7.52866">
        <ele>438</ele>
        <time>2016-05-22T14:15:29Z</time>
      </trkpt>
      <trkpt lat="43.91039" lon="7.52867">
        <ele>433</ele>
        <time>2016-05-22T14:15:52Z</time>
      </trkpt>
      <trkpt lat="43.91062" lon="7.5286">
        <ele>433</ele>
        <time>2016-05-22T14:16:11Z</time>
      </trkpt>
      <trkpt lat="43.91084" lon="7.5285">
        <ele>431</ele>
        <time>2016-05-22T14:16:30Z</time>
      </trkpt>
      <trkpt lat="43.91102" lon="7.52832">
        <ele>439</ele>
        <time>2016-05-22T14:16:49Z</time>
      </trkpt>
      <trkpt lat="43.91121" lon="7.52815">
        <ele>443</ele>
        <time>2016-05-22T14:17:09Z</time>
      </trkpt>
      <trkpt lat="43.91138" lon="7.5281">
        <ele>435</ele>
        <time>2016-05-22T14:17:33Z</time>
      </trkpt>
      <trkpt lat="43.91152" lon="7.52795">
        <ele>445</ele>
        <time>2016-05-22T14:17:55Z</time>
      </trkpt>
      <trkpt lat="43.91171" lon="7.52779">
        <ele>443</ele>
        <time>2016-05-22T14:18:15Z</time>
      </trkpt>
      <trkpt lat="43.91191" lon="7.52768">
        <ele>442</ele>
        <time>2016-05-22T14:18:34Z</time>
      </trkpt>
      <trkpt lat="43.91212" lon="7.52758">
        <ele>445</ele>
        <time>2016-05-22T14:18:53Z</time>
      </trkpt>
      <trkpt lat="43.91229" lon="7.5275">
        <ele>450</ele>
        <time>2016-05-22T14:19:16Z</time>
      </trkpt>
      <trkpt lat="43.91241" lon="7.52766">
        <ele>439</ele>
        <time>2016-05-22T14:19:39Z</time>
      </trkpt>
      <trkpt lat="43.91254" lon="7.5278">
        <ele>439</ele>
        <time>2016-05-22T14:20:01Z</time>
      </trkpt>
      <trkpt lat="43.9127" lon="7.52798">
        <ele>434</ele>
        <time>2016-05-22T14:20:21Z</time>
      </trkpt>
      <trkpt lat="43.91281" lon="7.52779">
        <ele>463</ele>
        <time>2016-05-22T14:20:44Z</time>
      </trkpt>
      <trkpt lat="43.91295" lon="7.52766">
        <ele>452</ele>
        <time>2016-05-22T14:21:20Z</time>
      </trkpt>
      <trkpt lat="43.91299" lon="7.52742">
        <ele>463</ele>
        <time>2016-05-22T14:21:40Z</time>
      </trkpt>
      <trkpt lat="43.913" lon="7.52718">
        <ele>449</ele>
        <time>2016-05-22T14:22:10Z</time>
      </trkpt>
      <trkpt lat="43.91283" lon="7.52698">
        <ele>456</ele>
        <time>2016-05-22T14:22:30Z</time>
      </trkpt>
      <trkpt lat="43.91274" lon="7.52678">
        <ele>452</ele>
        <time>2016-05-22T14:22:56Z</time>
      </trkpt>
      <trkpt lat="43.91259" lon="7.52663">
        <ele>445</ele>
        <time>2016-05-22T14:23:16Z</time>
      </trkpt>
      <trkpt lat="43.91238" lon="7.52645">
        <ele>447</ele>
        <time>2016-05-22T14:23:36Z</time>
      </trkpt>
      <trkpt lat="43.91232" lon="7.52621">
        <ele>447</ele>
        <time>2016-05-22T14:23:56Z</time>
      </trkpt>
      <trkpt lat="43.91218" lon="7.52597">
        <ele>444</ele>
        <time>2016-05-22T14:24:15Z</time>
      </trkpt>
      <trkpt lat="43.91208" lon="7.52569">
        <ele>445</ele>
        <time>2016-05-22T14:24:35Z</time>
      </trkpt>
      <trkpt lat="43.91196" lon="7.52551">
        <ele>445</ele>
        <time>2016-05-22T14:24:54Z</time>
      </trkpt>
      <trkpt lat="43.91188" lon="7.5253">
        <ele>450</ele>
        <time>2016-05-22T14:25:14Z</time>
      </trkpt>
      <trkpt lat="43.91184" lon="7.52506">
        <ele>459</ele>
        <time>2016-05-22T14:25:34Z</time>
      </trkpt>
      <trkpt lat="43.91188" lon="7.52482">
        <ele>469</ele>
        <time>2016-05-22T14:25:59Z</time>
      </trkpt>
      <trkpt lat="43.91199" lon="7.52464">
        <ele>463</ele>
        <time>2016-05-22T14:26:29Z</time>
      </trkpt>
      <trkpt lat="43.91205" lon="7.52446">
        <ele>461</ele>
        <time>2016-05-22T14:28:16Z</time>
      </trkpt>
      <trkpt lat="43.91217" lon="7.52433">
        <ele>467</ele>
        <time>2016-05-22T14:28:38Z</time>
      </trkpt>
      <trkpt lat="43.91219" lon="7.52409">
        <ele>471</ele>
        <time>2016-05-22T14:29:11Z</time>
      </trkpt>
      <trkpt lat="43.91221" lon="7.52384">
        <ele>478</ele>
        <time>2016-05-22T14:29:45Z</time>
      </trkpt>
      <trkpt lat="43.91229" lon="7.52364">
        <ele>479</ele>
        <time>2016-05-22T14:30:07Z</time>
      </trkpt>
      <trkpt lat="43.91235" lon="7.52342">
        <ele>477</ele>
        <time>2016-05-22T14:32:24Z</time>
      </trkpt>
      <trkpt lat="43.9125" lon="7.52332">
        <ele>468</ele>
        <time>2016-05-22T14:33:11Z</time>
      </trkpt>
      <trkpt lat="43.91261" lon="7.52314">
        <ele>460</ele>
        <time>2016-05-22T14:33:39Z</time>
      </trkpt>
      <trkpt lat="43.91267" lon="7.52291">
        <ele>456</ele>
        <time>2016-05-22T14:34:06Z</time>
      </trkpt>
      <trkpt lat="43.91272" lon="7.52263">
        <ele>453</ele>
        <time>2016-05-22T14:34:26Z</time>
      </trkpt>
      <trkpt lat="43.91284" lon="7.52238">
        <ele>453</ele>
        <time>2016-05-22T14:34:45Z</time>
      </trkpt>
      <trkpt lat="43.91299" lon="7.52226">
        <ele>457</ele>
        <time>2016-05-22T14:35:04Z</time>
      </trkpt>
      <trkpt lat="43.91313" lon="7.52211">
        <ele>449</ele>
        <time>2016-05-22T14:35:23Z</time>
      </trkpt>
      <trkpt lat="43.91329" lon="7.52192">
        <ele>453</ele>
        <time>2016-05-22T14:35:43Z</time>
      </trkpt>
      <trkpt lat="43.91349" lon="7.52198">
        <ele>460</ele>
        <time>2016-05-22T14:36:02Z</time>
      </trkpt>
      <trkpt lat="43.91366" lon="7.52203">
        <ele>458</ele>
        <time>2016-05-22T14:36:22Z</time>
      </trkpt>
      <trkpt lat="43.91386" lon="7.52207">
        <ele>459</ele>
        <time>2016-05-22T14:36:41Z</time>
      </trkpt>
      <trkpt lat="43.91405" lon="7.52208">
        <ele>455</ele>
        <time>2016-05-22T14:37:00Z</time>
      </trkpt>
      <trkpt lat="43.91422" lon="7.52209">
        <ele>451</ele>
        <time>2016-05-22T14:37:21Z</time>
      </trkpt>
      <trkpt lat="43.91455" lon="7.52209">
        <ele>445</ele>
        <time>2016-05-22T14:37:40Z</time>
      </trkpt>
      <trkpt lat="43.91481" lon="7.52198">
        <ele>452</ele>
        <time>2016-05-22T14:37:59Z</time>
      </trkpt>
      <trkpt lat="43.91503" lon="7.52194">
        <ele>450</ele>
        <time>2016-05-22T14:38:19Z</time>
      </trkpt>
      <trkpt lat="43.91525" lon="7.52193">
        <ele>446</ele>
        <time>2016-05-22T14:38:38Z</time>
      </trkpt>
      <trkpt lat="43.91543" lon="7.5218">
        <ele>441</ele>
        <time>2016-05-22T14:38:58Z</time>
      </trkpt>
      <trkpt lat="43.91563" lon="7.52173">
        <ele>442</ele>
        <time>2016-05-22T14:39:17Z</time>
      </trkpt>
      <trkpt lat="43.91583" lon="7.52167">
        <ele>445</ele>
        <time>2016-05-22T14:39:37Z</time>
      </trkpt>
      <trkpt lat="43.91601" lon="7.5216">
        <ele>438</ele>
        <time>2016-05-22T14:39:57Z</time>
      </trkpt>
      <trkpt lat="43.91635" lon="7.5215">
        <ele>436</ele>
        <time>2016-05-22T14:40:16Z</time>
      </trkpt>
      <trkpt lat="43.9165" lon="7.5214">
        <ele>434</ele>
        <time>2016-05-22T14:40:37Z</time>
      </trkpt>
      <trkpt lat="43.91669" lon="7.52144">
        <ele>432</ele>
        <time>2016-05-22T14:40:57Z</time>
      </trkpt>
      <trkpt lat="43.91689" lon="7.52142">
        <ele>436</ele>
        <time>2016-05-22T14:41:16Z</time>
      </trkpt>
      <trkpt lat="43.91706" lon="7.52143">
        <ele>426</ele>
        <time>2016-05-22T14:41:51Z</time>
      </trkpt>
      <trkpt lat="43.91724" lon="7.52144">
        <ele>426</ele>
        <time>2016-05-22T14:42:11Z</time>
      </trkpt>
      <trkpt lat="43.91756" lon="7.52137">
        <ele>423</ele>
        <time>2016-05-22T14:42:30Z</time>
      </trkpt>
      <trkpt lat="43.91769" lon="7.52124">
        <ele>418</ele>
        <time>2016-05-22T14:42:49Z</time>
      </trkpt>
      <trkpt lat="43.91795" lon="7.52112">
        <ele>416</ele>
        <time>2016-05-22T14:43:09Z</time>
      </trkpt>
      <trkpt lat="43.91816" lon="7.52098">
        <ele>415</ele>
        <time>2016-05-22T14:43:28Z</time>
      </trkpt>
      <trkpt lat="43.91823" lon="7.52076">
        <ele>419</ele>
        <time>2016-05-22T14:44:40Z</time>
      </trkpt>
      <trkpt lat="43.9184" lon="7.5207">
        <ele>422</ele>
        <time>2016-05-22T15:01:05Z</time>
      </trkpt>
      <trkpt lat="43.91859" lon="7.52071">
        <ele>421</ele>
        <time>2016-05-22T15:01:25Z</time>
      </trkpt>
      <trkpt lat="43.91876" lon="7.52071">
        <ele>422</ele>
        <time>2016-05-22T15:01:50Z</time>
      </trkpt>
      <trkpt lat="43.91894" lon="7.52073">
        <ele>422</ele>
        <time>2016-05-22T15:02:09Z</time>
      </trkpt>
      <trkpt lat="43.91919" lon="7.52072">
        <ele>417</ele>
        <time>2016-05-22T15:02:29Z</time>
      </trkpt>
      <trkpt lat="43.91939" lon="7.52064">
        <ele>421</ele>
        <time>2016-05-22T15:02:48Z</time>
      </trkpt>
      <trkpt lat="43.91956" lon="7.52074">
        <ele>413</ele>
        <time>2016-05-22T15:03:07Z</time>
      </trkpt>
      <trkpt lat="43.91973" lon="7.5208">
        <ele>407</ele>
        <time>2016-05-22T15:03:30Z</time>
      </trkpt>
      <trkpt lat="43.91998" lon="7.52084">
        <ele>408</ele>
        <time>2016-05-22T15:03:49Z</time>
      </trkpt>
      <trkpt lat="43.92013" lon="7.52098">
        <ele>405</ele>
        <time>2016-05-22T15:04:07Z</time>
      </trkpt>
      <trkpt lat="43.92032" lon="7.52103">
        <ele>404</ele>
        <time>2016-05-22T15:04:27Z</time>
      </trkpt>
      <trkpt lat="43.92048" lon="7.52107">
        <ele>399</ele>
        <time>2016-05-22T15:05:09Z</time>
      </trkpt>
      <trkpt lat="43.92063" lon="7.52124">
        <ele>401</ele>
        <time>2016-05-22T15:05:29Z</time>
      </trkpt>
      <trkpt lat="43.92066" lon="7.52153">
        <ele>402</ele>
        <time>2016-05-22T15:05:48Z</time>
      </trkpt>
      <trkpt lat="43.92079" lon="7.52182">
        <ele>398</ele>
        <time>2016-05-22T15:06:08Z</time>
      </trkpt>
      <trkpt lat="43.92092" lon="7.52201">
        <ele>403</ele>
        <time>2016-05-22T15:06:27Z</time>
      </trkpt>
      <trkpt lat="43.9211" lon="7.52202">
        <ele>408</ele>
        <time>2016-05-22T15:06:54Z</time>
      </trkpt>
      <trkpt lat="43.92132" lon="7.52205">
        <ele>405</ele>
        <time>2016-05-22T15:07:13Z</time>
      </trkpt>
      <trkpt lat="43.92156" lon="7.52193">
        <ele>406</ele>
        <time>2016-05-22T15:07:33Z</time>
      </trkpt>
      <trkpt lat="43.92182" lon="7.52191">
        <ele>405</ele>
        <time>2016-05-22T15:07:53Z</time>
      </trkpt>
      <trkpt lat="43.92205" lon="7.52201">
        <ele>395</ele>
        <time>2016-05-22T15:08:12Z</time>
      </trkpt>
      <trkpt lat="43.92226" lon="7.52211">
        <ele>390</ele>
        <time>2016-05-22T15:08:32Z</time>
      </trkpt>
      <trkpt lat="43.92255" lon="7.52216">
        <ele>387</ele>
        <time>2016-05-22T15:08:51Z</time>
      </trkpt>
      <trkpt lat="43.92274" lon="7.52222">
        <ele>382</ele>
        <time>2016-05-22T15:09:10Z</time>
      </trkpt>
      <trkpt lat="43.92302" lon="7.52227">
        <ele>384</ele>
        <time>2016-05-22T15:09:30Z</time>
      </trkpt>
      <trkpt lat="43.92326" lon="7.52234">
        <ele>384</ele>
        <time>2016-05-22T15:09:49Z</time>
      </trkpt>
      <trkpt lat="43.92346" lon="7.52253">
        <ele>377</ele>
        <time>2016-05-22T15:10:08Z</time>
      </trkpt>
      <trkpt lat="43.92358" lon="7.52278">
        <ele>377</ele>
        <time>2016-05-22T15:10:28Z</time>
      </trkpt>
      <trkpt lat="43.92385" lon="7.52305">
        <ele>377</ele>
        <time>2016-05-22T15:10:48Z</time>
      </trkpt>
      <trkpt lat="43.92403" lon="7.52313">
        <ele>377</ele>
        <time>2016-05-22T15:11:07Z</time>
      </trkpt>
      <trkpt lat="43.92417" lon="7.523">
        <ele>370</ele>
        <time>2016-05-22T15:11:27Z</time>
      </trkpt>
      <trkpt lat="43.92433" lon="7.52289">
        <ele>373</ele>
        <time>2016-05-22T15:11:47Z</time>
      </trkpt>
      <trkpt lat="43.92451" lon="7.52298">
        <ele>380</ele>
        <time>2016-05-22T15:12:05Z</time>
      </trkpt>
      <trkpt lat="43.92474" lon="7.52317">
        <ele>376</ele>
        <time>2016-05-22T15:12:24Z</time>
      </trkpt>
      <trkpt lat="43.92492" lon="7.52326">
        <ele>382</ele>
        <time>2016-05-22T15:12:43Z</time>
      </trkpt>
      <trkpt lat="43.92511" lon="7.52329">
        <ele>380</ele>
        <time>2016-05-22T15:13:02Z</time>
      </trkpt>
      <trkpt lat="43.92531" lon="7.52326">
        <ele>378</ele>
        <time>2016-05-22T15:13:21Z</time>
      </trkpt>
      <trkpt lat="43.92552" lon="7.52315">
        <ele>381</ele>
        <time>2016-05-22T15:13:40Z</time>
      </trkpt>
      <trkpt lat="43.92569" lon="7.52309">
        <ele>392</ele>
        <time>2016-05-22T15:15:09Z</time>
      </trkpt>
      <trkpt lat="43.92587" lon="7.52316">
        <ele>393</ele>
        <time>2016-05-22T15:15:28Z</time>
      </trkpt>
      <trkpt lat="43.92609" lon="7.52326">
        <ele>395</ele>
        <time>2016-05-22T15:15:48Z</time>
      </trkpt>
      <trkpt lat="43.92624" lon="7.52337">
        <ele>399</ele>
        <time>2016-05-22T15:16:08Z</time>
      </trkpt>
      <trkpt lat="43.92638" lon="7.52352">
        <ele>398</ele>
        <time>2016-05-22T15:16:30Z</time>
      </trkpt>
      <trkpt lat="43.92654" lon="7.52365">
        <ele>395</ele>
        <time>2016-05-22T15:16:49Z</time>
      </trkpt>
      <trkpt lat="43.92671" lon="7.5237">
        <ele>396</ele>
        <time>2016-05-22T15:17:23Z</time>
      </trkpt>
      <trkpt lat="43.92687" lon="7.52385">
        <ele>391</ele>
        <time>2016-05-22T15:17:42Z</time>
      </trkpt>
      <trkpt lat="43.92708" lon="7.52397">
        <ele>395</ele>
        <time>2016-05-22T15:18:02Z</time>
      </trkpt>
      <trkpt lat="43.92721" lon="7.52414">
        <ele>402</ele>
        <time>2016-05-22T15:18:25Z</time>
      </trkpt>
      <trkpt lat="43.92731" lon="7.52433">
        <ele>409</ele>
        <time>2016-05-22T15:18:47Z</time>
      </trkpt>
      <trkpt lat="43.92742" lon="7.52452">
        <ele>400</ele>
        <time>2016-05-22T15:19:10Z</time>
      </trkpt>
      <trkpt lat="43.92755" lon="7.52474">
        <ele>406</ele>
        <time>2016-05-22T15:19:29Z</time>
      </trkpt>
      <trkpt lat="43.9277" lon="7.52489">
        <ele>410</ele>
        <time>2016-05-22T15:19:50Z</time>
      </trkpt>
      <trkpt lat="43.92782" lon="7.52506">
        <ele>401</ele>
        <time>2016-05-22T15:20:10Z</time>
      </trkpt>
      <trkpt lat="43.92799" lon="7.52526">
        <ele>406</ele>
        <time>2016-05-22T15:20:29Z</time>
      </trkpt>
      <trkpt lat="43.92818" lon="7.52536">
        <ele>399</ele>
        <time>2016-05-22T15:20:48Z</time>
      </trkpt>
      <trkpt lat="43.9284" lon="7.52537">
        <ele>404</ele>
        <time>2016-05-22T15:21:07Z</time>
      </trkpt>
      <trkpt lat="43.92863" lon="7.52533">
        <ele>411</ele>
        <time>2016-05-22T15:21:26Z</time>
      </trkpt>
      <trkpt lat="43.92887" lon="7.52534">
        <ele>416</ele>
        <time>2016-05-22T15:21:45Z</time>
      </trkpt>
      <trkpt lat="43.92908" lon="7.52535">
        <ele>420</ele>
        <time>2016-05-22T15:22:04Z</time>
      </trkpt>
      <trkpt lat="43.92927" lon="7.52529">
        <ele>417</ele>
        <time>2016-05-22T15:22:24Z</time>
      </trkpt>
      <trkpt lat="43.92941" lon="7.52519">
        <ele>424</ele>
        <time>2016-05-22T15:22:45Z</time>
      </trkpt>
      <trkpt lat="43.92963" lon="7.52516">
        <ele>427</ele>
        <time>2016-05-22T15:23:04Z</time>
      </trkpt>
      <trkpt lat="43.92984" lon="7.52518">
        <ele>432</ele>
        <time>2016-05-22T15:23:23Z</time>
      </trkpt>
      <trkpt lat="43.93" lon="7.52529">
        <ele>432</ele>
        <time>2016-05-22T15:25:33Z</time>
      </trkpt>
      <trkpt lat="43.92988" lon="7.52546">
        <ele>422</ele>
        <time>2016-05-22T15:26:41Z</time>
      </trkpt>
      <trkpt lat="43.93002" lon="7.52531">
        <ele>420</ele>
        <time>2016-05-22T15:27:36Z</time>
      </trkpt>
      <trkpt lat="43.92998" lon="7.52507">
        <ele>412</ele>
        <time>2016-05-22T15:28:06Z</time>
      </trkpt>
      <trkpt lat="43.92988" lon="7.52487">
        <ele>413</ele>
        <time>2016-05-22T15:29:18Z</time>
      </trkpt>
      <trkpt lat="43.93003" lon="7.52494">
        <ele>400</ele>
        <time>2016-05-22T15:29:47Z</time>
      </trkpt>
      <trkpt lat="43.9301" lon="7.52473">
        <ele>400</ele>
        <time>2016-05-22T15:30:09Z</time>
      </trkpt>
      <trkpt lat="43.93023" lon="7.52456">
        <ele>386</ele>
        <time>2016-05-22T15:31:02Z</time>
      </trkpt>
      <trkpt lat="43.93024" lon="7.52432">
        <ele>381</ele>
        <time>2016-05-22T15:31:35Z</time>
      </trkpt>
      <trkpt lat="43.93032" lon="7.5241">
        <ele>373</ele>
        <time>2016-05-22T15:32:03Z</time>
      </trkpt>
      <trkpt lat="43.93045" lon="7.52395">
        <ele>373</ele>
        <time>2016-05-22T15:32:22Z</time>
      </trkpt>
      <trkpt lat="43.93062" lon="7.52377">
        <ele>379</ele>
        <time>2016-05-22T15:32:42Z</time>
      </trkpt>
      <trkpt lat="43.93076" lon="7.52385">
        <ele>378</ele>
        <time>2016-05-22T15:33:02Z</time>
      </trkpt>
      <trkpt lat="43.93089" lon="7.52369">
        <ele>364</ele>
        <time>2016-05-22T15:33:22Z</time>
      </trkpt>
      <trkpt lat="43.93099" lon="7.52349">
        <ele>353</ele>
        <time>2016-05-22T15:33:45Z</time>
      </trkpt>
      <trkpt lat="43.93112" lon="7.52333">
        <ele>352</ele>
        <time>2016-05-22T15:34:12Z</time>
      </trkpt>
      <trkpt lat="43.93121" lon="7.52313">
        <ele>347</ele>
        <time>2016-05-22T15:34:35Z</time>
      </trkpt>
      <trkpt lat="43.93132" lon="7.52295">
        <ele>337</ele>
        <time>2016-05-22T15:34:55Z</time>
      </trkpt>
      <trkpt lat="43.93147" lon="7.52283">
        <ele>344</ele>
        <time>2016-05-22T15:35:17Z</time>
      </trkpt>
      <trkpt lat="43.93165" lon="7.52284">
        <ele>330</ele>
        <time>2016-05-22T15:36:18Z</time>
      </trkpt>
      <trkpt lat="43.93181" lon="7.52276">
        <ele>315</ele>
        <time>2016-05-22T15:37:00Z</time>
      </trkpt>
      <trkpt lat="43.93198" lon="7.52269">
        <ele>297</ele>
        <time>2016-05-22T15:37:35Z</time>
      </trkpt>
      <trkpt lat="43.93212" lon="7.52254">
        <ele>302</ele>
        <time>2016-05-22T15:38:16Z</time>
      </trkpt>
      <trkpt lat="43.93226" lon="7.52238">
        <ele>289</ele>
        <time>2016-05-22T15:39:02Z</time>
      </trkpt>
      <trkpt lat="43.93225" lon="7.52215">
        <ele>273</ele>
        <time>2016-05-22T15:41:35Z</time>
      </trkpt>
      <trkpt lat="43.93209" lon="7.52208">
        <ele>305</ele>
        <time>2016-05-22T15:43:05Z</time>
      </trkpt>
      <trkpt lat="43.93196" lon="7.52193">
        <ele>297</ele>
        <time>2016-05-22T15:43:45Z</time>
      </trkpt>
      <trkpt lat="43.93188" lon="7.52172">
        <ele>259</ele>
        <time>2016-05-22T15:44:09Z</time>
      </trkpt>
      <trkpt lat="43.93177" lon="7.52147">
        <ele>264</ele>
        <time>2016-05-22T15:44:29Z</time>
      </trkpt>
      <trkpt lat="43.93175" lon="7.52123">
        <ele>278</ele>
        <time>2016-05-22T15:44:56Z</time>
      </trkpt>
      <trkpt lat="43.93188" lon="7.52107">
        <ele>277</ele>
        <time>2016-05-22T15:45:43Z</time>
      </trkpt>
      <trkpt lat="43.93195" lon="7.52085">
        <ele>279</ele>
        <time>2016-05-22T15:46:08Z</time>
      </trkpt>
      <trkpt lat="43.93212" lon="7.52082">
        <ele>283</ele>
        <time>2016-05-22T15:46:34Z</time>
      </trkpt>
      <trkpt lat="43.93232" lon="7.52067">
        <ele>284</ele>
        <time>2016-05-22T15:46:54Z</time>
      </trkpt>
      <trkpt lat="43.93246" lon="7.52045">
        <ele>288</ele>
        <time>2016-05-22T15:47:13Z</time>
      </trkpt>
      <trkpt lat="43.93252" lon="7.52023">
        <ele>284</ele>
        <time>2016-05-22T15:48:04Z</time>
      </trkpt>
      <trkpt lat="43.93264" lon="7.52007">
        <ele>288</ele>
        <time>2016-05-22T15:48:24Z</time>
      </trkpt>
      <trkpt lat="43.93278" lon="7.51971">
        <ele>295</ele>
        <time>2016-05-22T15:48:43Z</time>
      </trkpt>
      <trkpt lat="43.93284" lon="7.51939">
        <ele>292</ele>
        <time>2016-05-22T15:49:02Z</time>
      </trkpt>
      <trkpt lat="43.93289" lon="7.5191">
        <ele>280</ele>
        <time>2016-05-22T15:49:22Z</time>
      </trkpt>
      <trkpt lat="43.93302" lon="7.5189">
        <ele>277</ele>
        <time>2016-05-22T15:49:42Z</time>
      </trkpt>
      <trkpt lat="43.93307" lon="7.51868">
        <ele>272</ele>
        <time>2016-05-22T15:50:13Z</time>
      </trkpt>
      <trkpt lat="43.93313" lon="7.51838">
        <ele>272</ele>
        <time>2016-05-22T15:50:32Z</time>
      </trkpt>
      <trkpt lat="43.93326" lon="7.51823">
        <ele>281</ele>
        <time>2016-05-22T15:51:04Z</time>
      </trkpt>
      <trkpt lat="43.93335" lon="7.51843">
        <ele>285</ele>
        <time>2016-05-22T15:51:25Z</time>
      </trkpt>
      <trkpt lat="43.9335" lon="7.51862">
        <ele>282</ele>
        <time>2016-05-22T15:51:44Z</time>
      </trkpt>
      <trkpt lat="43.93367" lon="7.5187">
        <ele>287</ele>
        <time>2016-05-22T15:52:10Z</time>
      </trkpt>
      <trkpt lat="43.93383" lon="7.51879">
        <ele>283</ele>
        <time>2016-05-22T15:52:32Z</time>
      </trkpt>
      <trkpt lat="43.93402" lon="7.51886">
        <ele>278</ele>
        <time>2016-05-22T15:52:51Z</time>
      </trkpt>
      <trkpt lat="43.93422" lon="7.51882">
        <ele>276</ele>
        <time>2016-05-22T15:53:10Z</time>
      </trkpt>
      <trkpt lat="43.93439" lon="7.51882">
        <ele>278</ele>
        <time>2016-05-22T15:53:37Z</time>
      </trkpt>
      <trkpt lat="43.93466" lon="7.51877">
        <ele>281</ele>
        <time>2016-05-22T15:53:56Z</time>
      </trkpt>
      <trkpt lat="43.93487" lon="7.51881">
        <ele>284</ele>
        <time>2016-05-22T15:54:15Z</time>
      </trkpt>
      <trkpt lat="43.93505" lon="7.51891">
        <ele>286</ele>
        <time>2016-05-22T15:54:34Z</time>
      </trkpt>
      <trkpt lat="43.93519" lon="7.51907">
        <ele>272</ele>
        <time>2016-05-22T15:55:08Z</time>
      </trkpt>
      <trkpt lat="43.93534" lon="7.51925">
        <ele>273</ele>
        <time>2016-05-22T15:55:28Z</time>
      </trkpt>
      <trkpt lat="43.93552" lon="7.51929">
        <ele>284</ele>
        <time>2016-05-22T15:55:56Z</time>
      </trkpt>
      <trkpt lat="43.93569" lon="7.51933">
        <ele>287</ele>
        <time>2016-05-22T15:56:27Z</time>
      </trkpt>
      <trkpt lat="43.93584" lon="7.51936">
        <ele>284</ele>
        <time>2016-05-22T15:56:54Z</time>
      </trkpt>
      <trkpt lat="43.93603" lon="7.51936">
        <ele>290</ele>
        <time>2016-05-22T15:57:14Z</time>
      </trkpt>
      <trkpt lat="43.93629" lon="7.51942">
        <ele>286</ele>
        <time>2016-05-22T15:57:33Z</time>
      </trkpt>
      <trkpt lat="43.93641" lon="7.5196">
        <ele>287</ele>
        <time>2016-05-22T15:58:26Z</time>
      </trkpt>
      <trkpt lat="43.93658" lon="7.51961">
        <ele>289</ele>
        <time>2016-05-22T15:58:51Z</time>
      </trkpt>
      <trkpt lat="43.93659" lon="7.5193">
        <ele>290</ele>
        <time>2016-05-22T15:59:10Z</time>
      </trkpt>
      <trkpt lat="43.93673" lon="7.51909">
        <ele>292</ele>
        <time>2016-05-22T15:59:29Z</time>
      </trkpt>
      <trkpt lat="43.93682" lon="7.5189">
        <ele>288</ele>
        <time>2016-05-22T16:00:01Z</time>
      </trkpt>
      <trkpt lat="43.93696" lon="7.51877">
        <ele>301</ele>
        <time>2016-05-22T16:00:30Z</time>
      </trkpt>
      <trkpt lat="43.93712" lon="7.51871">
        <ele>298</ele>
        <time>2016-05-22T16:00:58Z</time>
      </trkpt>
      <trkpt lat="43.93738" lon="7.51865">
        <ele>295</ele>
        <time>2016-05-22T16:01:17Z</time>
      </trkpt>
      <trkpt lat="43.93742" lon="7.51835">
        <ele>290</ele>
        <time>2016-05-22T16:01:36Z</time>
      </trkpt>
      <trkpt lat="43.93734" lon="7.51815">
        <ele>281</ele>
        <time>2016-05-22T16:01:57Z</time>
      </trkpt>
      <trkpt lat="43.93716" lon="7.51812">
        <ele>280</ele>
        <time>2016-05-22T16:02:34Z</time>
      </trkpt>
      <trkpt lat="43.93707" lon="7.51791">
        <ele>277</ele>
        <time>2016-05-22T16:03:01Z</time>
      </trkpt>
      <trkpt lat="43.93721" lon="7.51775">
        <ele>275</ele>
        <time>2016-05-22T16:04:01Z</time>
      </trkpt>
      <trkpt lat="43.93708" lon="7.51753">
        <ele>268</ele>
        <time>2016-05-22T16:04:20Z</time>
      </trkpt>
      <trkpt lat="43.93695" lon="7.51736">
        <ele>275</ele>
        <time>2016-05-22T16:05:00Z</time>
      </trkpt>
      <trkpt lat="43.93691" lon="7.51713">
        <ele>274</ele>
        <time>2016-05-22T16:05:20Z</time>
      </trkpt>
      <trkpt lat="43.93675" lon="7.5169">
        <ele>273</ele>
        <time>2016-05-22T16:05:39Z</time>
      </trkpt>
      <trkpt lat="43.93667" lon="7.51669">
        <ele>273</ele>
        <time>2016-05-22T16:06:20Z</time>
      </trkpt>
      <trkpt lat="43.9365" lon="7.51653">
        <ele>271</ele>
        <time>2016-05-22T16:06:39Z</time>
      </trkpt>
      <trkpt lat="43.93643" lon="7.51631">
        <ele>272</ele>
        <time>2016-05-22T16:09:51Z</time>
      </trkpt>
      <trkpt lat="43.93634" lon="7.51609">
        <ele>271</ele>
        <time>2016-05-22T16:10:11Z</time>
      </trkpt>
      <trkpt lat="43.93625" lon="7.51589">
        <ele>276</ele>
        <time>2016-05-22T16:10:42Z</time>
      </trkpt>
      <trkpt lat="43.93612" lon="7.51563">
        <ele>281</ele>
        <time>2016-05-22T16:11:02Z</time>
      </trkpt>
      <trkpt lat="43.93596" lon="7.51543">
        <ele>277</ele>
        <time>2016-05-22T16:11:21Z</time>
      </trkpt>
      <trkpt lat="43.93587" lon="7.51527">
        <ele>277</ele>
        <time>2016-05-22T16:12:06Z</time>
      </trkpt>
      <trkpt lat="43.93582" lon="7.5148">
        <ele>284</ele>
        <time>2016-05-22T16:12:26Z</time>
      </trkpt>
      <trkpt lat="43.93593" lon="7.5146">
        <ele>286</ele>
        <time>2016-05-22T16:12:45Z</time>
      </trkpt>
      <trkpt lat="43.93603" lon="7.51444">
        <ele>290</ele>
        <time>2016-05-22T16:13:51Z</time>
      </trkpt>
      <trkpt lat="43.93611" lon="7.51418">
        <ele>293</ele>
        <time>2016-05-22T16:14:09Z</time>
      </trkpt>
      <trkpt lat="43.93621" lon="7.51397">
        <ele>286</ele>
        <time>2016-05-22T16:17:45Z</time>
      </trkpt>
      <trkpt lat="43.93635" lon="7.51382">
        <ele>286</ele>
        <time>2016-05-22T16:18:07Z</time>
      </trkpt>
      <trkpt lat="43.93651" lon="7.51385">
        <ele>282</ele>
        <time>2016-05-22T16:18:53Z</time>
      </trkpt>
      <trkpt lat="43.93668" lon="7.51382">
        <ele>281</ele>
        <time>2016-05-22T16:19:21Z</time>
      </trkpt>
      <trkpt lat="43.93685" lon="7.51388">
        <ele>283</ele>
        <time>2016-05-22T16:19:41Z</time>
      </trkpt>
      <trkpt lat="43.93701" lon="7.51395">
        <ele>282</ele>
        <time>2016-05-22T16:20:07Z</time>
      </trkpt>
      <trkpt lat="43.93737" lon="7.51406">
        <ele>286</ele>
        <time>2016-05-22T16:20:27Z</time>
      </trkpt>
      <trkpt lat="43.9375" lon="7.51389">
        <ele>282</ele>
        <time>2016-05-22T16:21:18Z</time>
      </trkpt>
      <trkpt lat="43.93766" lon="7.51399">
        <ele>302</ele>
        <time>2016-05-22T16:26:59Z</time>
      </trkpt>
      <trkpt lat="43.93759" lon="7.51421">
        <ele>300</ele>
        <time>2016-05-22T16:30:37Z</time>
      </trkpt>
      <trkpt lat="43.93777" lon="7.51429">
        <ele>297</ele>
        <time>2016-05-22T16:30:56Z</time>
      </trkpt>
      <trkpt lat="43.93791" lon="7.51451">
        <ele>293</ele>
        <time>2016-05-22T16:31:15Z</time>
      </trkpt>
      <trkpt lat="43.93805" lon="7.51457">
        <ele>306</ele>
        <time>2016-05-22T16:34:43Z</time>
      </trkpt>
      <trkpt lat="43.93817" lon="7.51442">
        <ele>295</ele>
        <time>2016-05-22T16:35:08Z</time>
      </trkpt>
      <trkpt lat="43.93824" lon="7.51412">
        <ele>290</ele>
        <time>2016-05-22T16:35:27Z</time>
      </trkpt>
      <trkpt lat="43.93815" lon="7.5137">
        <ele>292</ele>
        <time>2016-05-22T16:35:47Z</time>
      </trkpt>
      <trkpt lat="43.93822" lon="7.51347">
        <ele>287</ele>
        <time>2016-05-22T16:38:28Z</time>
      </trkpt>
      <trkpt lat="43.93834" lon="7.51324">
        <ele>287</ele>
        <time>2016-05-22T16:38:47Z</time>
      </trkpt>
      <trkpt lat="43.93847" lon="7.51307">
        <ele>294</ele>
        <time>2016-05-22T16:39:19Z</time>
      </trkpt>
      <trkpt lat="43.93862" lon="7.51293">
        <ele>296</ele>
        <time>2016-05-22T16:40:12Z</time>
      </trkpt>
      <trkpt lat="43.93883" lon="7.51276">
        <ele>295</ele>
        <time>2016-05-22T16:40:32Z</time>
      </trkpt>
      <trkpt lat="43.93884" lon="7.51248">
        <ele>291</ele>
        <time>2016-05-22T16:40:51Z</time>
      </trkpt>
      <trkpt lat="43.93879" lon="7.51225">
        <ele>294</ele>
        <time>2016-05-22T16:41:23Z</time>
      </trkpt>
      <trkpt lat="43.93858" lon="7.51213">
        <ele>296</ele>
        <time>2016-05-22T16:41:42Z</time>
      </trkpt>
      <trkpt lat="43.93838" lon="7.51202">
        <ele>302</ele>
        <time>2016-05-22T16:42:01Z</time>
      </trkpt>
      <trkpt lat="43.93814" lon="7.51186">
        <ele>303</ele>
        <time>2016-05-22T16:42:21Z</time>
      </trkpt>
      <trkpt lat="43.938" lon="7.51185">
        <ele>303</ele>
        <time>2016-05-22T16:43:30Z</time>
      </trkpt>
      <trkpt lat="43.93732" lon="7.51152">
        <ele>307</ele>
        <time>2016-05-22T16:43:50Z</time>
      </trkpt>
      <trkpt lat="43.93687" lon="7.51078">
        <ele>315</ele>
        <time>2016-05-22T16:44:10Z</time>
      </trkpt>
      <trkpt lat="43.93763" lon="7.51042">
        <ele>308</ele>
        <time>2016-05-22T16:44:29Z</time>
      </trkpt>
      <trkpt lat="43.93775" lon="7.50896">
        <ele>315</ele>
        <time>2016-05-22T16:44:48Z</time>
      </trkpt>
      <trkpt lat="43.938" lon="7.50796">
        <ele>330</ele>
        <time>2016-05-22T16:45:07Z</time>
      </trkpt>
      <trkpt lat="43.93829" lon="7.50635">
        <ele>351</ele>
        <time>2016-05-22T16:45:27Z</time>
      </trkpt>
      <trkpt lat="43.93861" lon="7.50513">
        <ele>362</ele>
        <time>2016-05-22T16:45:47Z</time>
      </trkpt>
      <trkpt lat="43.93829" lon="7.50371">
        <ele>375</ele>
        <time>2016-05-22T16:46:07Z</time>
      </trkpt>
      <trkpt lat="43.93807" lon="7.50299">
        <ele>395</ele>
        <time>2016-05-22T16:46:26Z</time>
      </trkpt>
      <trkpt lat="43.9383" lon="7.50252">
        <ele>398</ele>
        <time>2016-05-22T16:46:45Z</time>
      </trkpt>
      <trkpt lat="43.93813" lon="7.50169">
        <ele>410</ele>
        <time>2016-05-22T16:47:05Z</time>
      </trkpt>
      <trkpt lat="43.93816" lon="7.5015">
        <ele>418</ele>
        <time>2016-05-22T16:47:28Z</time>
      </trkpt>
      <trkpt lat="43.93817" lon="7.501">
        <ele>424</ele>
        <time>2016-05-22T16:47:47Z</time>
      </trkpt>
      <trkpt lat="43.93833" lon="7.50079">
        <ele>417</ele>
        <time>2016-05-22T16:48:07Z</time>
      </trkpt>
      <trkpt lat="43.93842" lon="7.49996">
        <ele>417</ele>
        <time>2016-05-22T16:48:27Z</time>
      </trkpt>
      <trkpt lat="43.93889" lon="7.49912">
        <ele>409</ele>
        <time>2016-05-22T16:48:46Z</time>
      </trkpt>
      <trkpt lat="43.93891" lon="7.49873">
        <ele>406</ele>
        <time>2016-05-22T16:49:06Z</time>
      </trkpt>
      <trkpt lat="43.93901" lon="7.49829">
        <ele>409</ele>
        <time>2016-05-22T16:49:25Z</time>
      </trkpt>
      <trkpt lat="43.9386" lon="7.49745">
        <ele>411</ele>
        <time>2016-05-22T16:49:45Z</time>
      </trkpt>
      <trkpt lat="43.93836" lon="7.49697">
        <ele>412</ele>
        <time>2016-05-22T16:50:04Z</time>
      </trkpt>
      <trkpt lat="43.93858" lon="7.49672">
        <ele>416</ele>
        <time>2016-05-22T16:50:24Z</time>
      </trkpt>
      <trkpt lat="43.93891" lon="7.49629">
        <ele>421</ele>
        <time>2016-05-22T16:50:43Z</time>
      </trkpt>
      <trkpt lat="43.93903" lon="7.49647">
        <ele>426</ele>
        <time>2016-05-22T16:51:32Z</time>
      </trkpt>
    </trkseg>
  </trk>
</gpx>